COOLWX HOME

EXTREME HOME

OTHER COOLWX PAGES
    Coolwx Hit Images
    Extreme Weather
    Global Forecasts
    Hourly Model Forecasts
    Mesoscale Analysis
    Obs. Weather Database
    Offshore Weather Data
    Precipitation Type
    Record Breakers
    U.S. Weather Statistics


EXTREME WX CATEGORIES
   CITIES & VALUES:
       Temperature
       Dewpoint
       Heat Index
       Wind
       Wind Chill
       Pressure
       Pressure Change
       Precip Type/Intensity
       Precip Amount
       Thunderstorm
       Blizzard
       Visibility
       Astronomical
       Other
       Multiple
       Unknown
   CITIES & FULL REPORTS:
       Temperature
       Dewpoint
       Heat Index
       Wind
       Wind Chill
       Pressure
       Pressure Change
       Precip Type/Intensity
       Precip Amount
       Thunderstorm
       Blizzard
       Visibility
       Astronomical
       Other
       Multiple
   USA & WORLD PLOTS:
       Temperature
       Dewpoint
       Wind
       Wind Chill & Heat Index
       Pressure
       Pressure Change
       Precip Type/Intensity
       Precip Amount
       Thunderstorm
       Blizzard
       Visibility
       Astronomical
       Other
       Unknown
   REPEAT OFFENDERS:
       Today
       Yesterday
       This month
       This year
       Since 2007
   RSS:
       Feed
   ARCHIVE:
       2024062123
       2024062121
       2024062118
       2024062115
       2024062112
       2024062109
       2024062106
       2024062103
       2024062100
       2024062021
       2024062018
       2024062015
       2024062012
       2024062009
       2024062006
       2024062003
       2024062000
       2024061921
       2024061918
       2024061915
       2024061912
       2024061909
       2024061906
       2024061903

CONTACT
       Bob Hart
       (rhart at fsu.edu)

Extreme & Weird Weather of the World - Archive for 2024051921
Currently using 35817 observations from 5161 unique global stations over the past 3 hours.
Last Updated: Sun May 19 21:46:32 UTC 2024



1 station reporting temperature -55°C or colder

0 stations reporting temperature -50°C to -54°C

0 stations reporting temperature -45°C to -49°C

0 stations reporting temperature -40°C to -44°C

0 stations reporting temperature 55°C or warmer

0 stations reporting temperature 50°C to 54°C

0 stations reporting temperature 45°C to 49°C

22 stations reporting temperature 40°C to 44°C


1 station reporting dewpoint 30°C or greater

22 stations reporting dewpoint 28-29°C

184 stations reporting dewpoint 26-27°C


1 station reporting wind gusts 70kt or stronger

1 station reporting wind gusts 60-69kt

4 stations reporting wind gusts 50-59kt

39 stations reporting wind gusts 40-49kt


1 station reporting (sustained) wind chill of -55°C or colder

0 stations reporting (sustained) wind chill of -50°C to -54°C

0 stations reporting (sustained) wind chill of -45°C to -49°C

0 stations reporting (sustained) wind chill of -40°C to -44°C


0 stations reporting heat index of 55°C or hotter

4 stations reporting heat index of 50°C to 54°C

24 stations reporting heat index of 45°C to 49°C

135 stations reporting heat index of 40°C to 44°C


0 stations reporting sea level pressure < 950mb

0 stations reporting sea level pressure 950mb - 959mb

1 station reporting sea level pressure 960mb - 969mb

  • PFTO: UNKNOWN, [967.9mb, 28.58in]    
    PFTO 192056Z AUTO VRB06KT 10SM CLR 16/M01 A2962 RMK AO2 SLP679 T01561006 58016 $
    PFTO 191956Z AUTO VRB04KT 10SM CLR 14/M01 A2964 RMK AO2 SLP684 T01441006 $
    PFTO 191856Z AUTO VRB03KT 10SM CLR 13/M01 A2966 RMK AO2 SLP690 T01331006 $
    PFTO 191756Z AUTO 22005KT 10SM CLR 13/00 A2967 RMK AO2 SLP694 T01280000 10128 21006 58014 $
1 station reporting sea level pressure 970mb - 979mb

  • PACX: UNKNOWN, [972.3mb, 28.71in]    
    PACX 192056Z AUTO 10010G15KT 10SM CLR 14/M03 A2981 RMK AO2 SLP723 T01441033 56007
    PACX 191956Z AUTO 11008G14KT 10SM CLR 14/M03 A2981 RMK AO2 SLP724 T01391033
    PACX 191856Z AUTO 08007KT 10SM CLR 13/M03 A2982 RMK AO2 SLP726 T01281033
    PACX 191756Z AUTO 00000KT 10SM CLR 12/M03 A2983 RMK AO2 SLP730 T01171033 10122 20039 58011
2 stations reporting sea level pressure 980mb - 989mb

  • SCRM: Teniente Rodolfo, Antarctica [983mb, 29.02in]    
    SCRM 192100Z 26030KT 9999 SCT015 M02/M06 Q0983 NOSIG
    SCRM 192000Z 26028KT 9999 SCT020 M02/M06 Q0983 NOSIG
    SCRM 191900Z 27025KT 9999 SCT020 M02/M04 Q0983 NOSIG
    SCRM 191800Z 26025KT 9999 BKN020 M02/M04 Q0983 NOSIG
  • NZCM: Williams Field, Antarctica [983.6mb, 29.04in]    
    NZCM 192101Z AUTO 05011KT 6000 -SN FEW090 SCT110 M26/M30 A2905 RMK AO2 SNB2101 SLP845 T12591302 $
    NZCM 192055Z AUTO 05011G20KT 6000 FEW110 M26/M30 A2905 RMK AO2 SLP845 T12571301 51010 $
    NZCM 191955Z AUTO 06012G17KT 6000 SCT002 OVC095 M26/M30 A2905 RMK AO2 SLP845 T12581299 $
    NZCM 191855Z AUTO 07009KT 9999 BKN110 BKN140 M25/M29 A2904 RMK AO2 SLP840 T12511293 $
    NZCM 191755Z AUTO 05014KT 9999 SCT120 BKN150 M24/M29 A2903 RMK AO2 SLP836 T12441289 11224 21259 51007 $
1 station reporting sea level pressure > 1055mb

  • MMLO: Del Bajio / Leon, Mexico [1099.9mb, 32.47in]    
    MMLO 192048Z 26009KT 7SM BKN030TCU 33/03 A3008 RMK SLP999 57030 903 8/200 HZY
0 stations reporting sea level pressure 1050-1054mb

0 stations reporting sea level pressure 1045-1049mb

0 stations reporting sea level pressure 1040-1044mb

7 stations reporting sea level pressure 1035-1039mb

  • FDMY: Mayiwane, Swaziland [1035mb, 30.56in]    
    FDMY 192000Z AUTO 09003KT //// // ////// 20/18 Q1035
    FDMY 191900Z AUTO 06002KT //// // ////// 20/16 Q1035
  • SLLP: La Paz / Alto, Bolivia [1039mb, 30.68in]    
    SLLP 192100Z 28009KT 9999 FEW023 14/M05 Q1038
    SLLP 192000Z 27009KT 9999 FEW023 15/M02 Q1038
    SLLP 191900Z 27009KT 220V330 9999 FEW023 15/M04 Q1038
    SLLP 191800Z 28009G19KT 190V320 9999 FEW023 14/M03 Q1039
  • SPHY: Andahuayla, Peru [1035mb, 30.56in]    
    SPHY 191900Z 05007KT 9999 SCT012 17/10 Q1035 RMK BIRD HAZARD RWY03/21 PP000
    SPHY 191800Z 07003KT 9999 SCT012 17/09 Q1035 RMK BIRD HAZARD RWY03/21 PP000
  • SPJL: Juliaca, Peru [1036mb, 30.59in]    
    SPJL 191900Z VRB06KT 9999 SCT020 18/M03 Q1035 RMK PP000
    SPJL 191800Z 06006KT 020V160 9999 FEW020 17/M03 Q1036 RMK PP000
  • CYHK: Gjoa Haven Airport, Canada [1035.7mb, 30.58in]    
    CYHK 192100Z 07010KT 15SM OVC020 00/M02 A3056 RMK SC8 SLP355
    CYHK 192000Z 07009KT 15SM OVC020 00/M02 A3056 RMK SC8 OBS+11 SLP356
    CYHK 191900Z 07008KT 15SM OVC020 01/M01 A3056 RMK SC8 SLP356
    CYHK 191800Z 06008KT 15SM OVC020 00/M02 A3057 RMK SC8 SLP357
  • CYRB: Resolute, NT, Canada [1035.6mb, 30.57in]    
    CYRB 192100Z 30003KT 30SM FEW006 OVC018 M04/M05 A3055 RMK ST1SC8 ST TR SLP354
    CYRB 192000Z 28003KT 260V320 30SM FEW006 BKN016 OVC020 M04/M05 A3055 RMK ST1SC7SC1 ST TR SLP354
    CYRB 191900Z 31004KT 30SM FEW002 OVC018 M05/M06 A3055 RMK ST1SC7 SLP355
    CYRB 191800Z VRB02KT 25SM SCT003 OVC016 M05/M06 A3055 RMK ST3SC5 SLP356
  • CYYH: Spence Bay Airport, Canada [1035.9mb, 30.58in]    
    CYYH 192100Z 07009KT 15SM FEW010 OVC018 00/M03 A3057 RMK SF1SC8 SF TR SLP356
    CYYH 192000Z 04005KT 15SM FEW009 OVC018 01/M02 A3057 RMK SF1SC8 SF TR SLP357
    CYYH 191900Z 02004KT 15SM FEW009 OVC018 01/M03 A3057 RMK SF1NS8 SF TR SLP357
    CYYH 191800Z VRB02KT 15SM FEW009 OVC018 00/M04 A3058 RMK SF1NS8 SF TR SLP359


0 stations reporting 3-hourly pressure fall of 10mb or greater

4 stations reporting 3-hourly pressure fall of 5mb to 9.9mb

  • KGRI: Grand Island, NE, United States [-6.3mb]
    KGRI 192053Z 14017G29KT 10SM SCT100 SCT120 17/13 A2973 RMK AO2 PK WND 16034/2023 LTG DSNT SE RAB06E15B29E41 TSB14E29 SLP066 P0000 60000 T01670128 58063
  • KHLC: Hill City, KS, United States [-6.1mb]
    KHLC 192053Z AUTO 11014G23KT 10SM CLR 22/17 A2974 RMK AO2 PK WND 11026/2013 LTG DSNT SE PRESFR SLP055 60000 T02220167 56061
  • KOLU: Columbus Municipal, NE, United States [-5.0mb]
    KOLU 192056Z AUTO 14008KT 10SM 19/14 A2982 RMK AO2 SLP097 60004 T01940139 56050 $
  • KTQE: Tekamah, Tekamah Municipal Airport, NE, United States [-5.2mb]
    KTQE 192054Z AUTO 12016G23KT 10SM FEW033 FEW090 19/13 A2982 RMK AO2 PK WND 14026/2009 SLP090 60003 T01940133 57052
1 station reporting 3-hourly pressure rise of 5mb to 9.9mb

  • CWGM: Waterton Park Gate, Canada [9.7mb]
    CWGM 191800Z AUTO 20007KT 02/M00 RMK AO1 6PAST HR SOG 01 2011 SLP175 P0002 T00231004 50097
0 stations reporting 3-hourly pressure rise of 10mb or greater


0 stations reporting heavy snow

4 stations reporting any sleet

  • K1AM: Alpha (raynesford), MT, United States
    K1AM 191955Z AUTO 22005KT 4SM -SN BR SCT009 BKN016 OVC022 02/00 A2996 RMK AO2 RAB26E28PLB28E42SNB42 SLP167 P0006 T00160004
    K1AM 192055Z AUTO 17004KT 10SM FEW130 SCT160 07/03 A2995 RMK AO2 SNE08PLB08E12RAB12E30 SLP155 P0003 60011 T00680025 50013
  • K1IM: India (ulm), MT, United States
    K1IM 192055Z AUTO 03013KT 10SM FEW034 08/03 A2994 RMK AO2 RAB02E11PLB11E30 SLP157 P0024 60024 T00810028 52016 $
  • K1LM: Lima (judith Gap), MT, United States
    K1LM 191755Z AUTO 32014KT 2 3/4SM -SN BR FEW006 OVC015 01/01 A2990 RMK AO2 DZE12RAB12E22PLB22E25SNB25 SLP138 P0003 60003 T00090005 10051 20009 53016
    K1LM 191955Z AUTO 01006KT 10SM BKN010 BKN030 BKN095 OVC110 05/03 A2992 RMK AO2 SNE1855RAB1855E1859PLB1859E09RAB09E31 CIG 010V030 SLP145 P0000 T00450028
  • KGFA: Malmstrom AFB, MT, United States
    KGFA 191833Z AUTO 16003G18KT 6SM -PL SCT028 BKN050 06/M00 A2992 RMK AO2 LTG DSNT NW RAB27E33PLB33 SLP152
    KGFA 191849Z AUTO 21007KT 10SM -RA SCT037 SCT050 OVC070 05/01 A2992 RMK AO2 LTG DSNT NW RAB27E33PLB33E49RAB49 SLP152
    KGFA 191853Z AUTO 20008KT 10SM SCT036 OVC070 06/01 A2992 RMK AO2 LTG DSNT NW RAB27E33PLB33E49RAB49E53 SLP151
    KGFA 191855Z AUTO 20008KT 10SM SCT036 OVC070 06/02 A2992 RMK AO2 LTG DSNT NW RAB27E33PLB33E49RAB49E53 SLP151 P0008 T00580015
0 stations reporting any freezing rain

29 stations reporting heavy rain

  • CYQF: Red Deer, Alta., Canada
    CYQF 191816Z AUTO 31019G28KT 8SM +RA FEW032 BKN039 OVC055 06/01 A2989 RMK PRESRR PCPN 0.8MM PAST HR SLP150
  • EGHI: Southampton, United Kingdom
    EGHI 192020Z VRB01KT 4000 +SHRA SCT022 SCT040 16/14 Q1014
  • KCKF: Cordele, GA, United States
    KCKF 192015Z AUTO 00000KT 3SM +RA SCT023 BKN035 OVC070 22/19 A2991 RMK AO2 LTG DSNT SE T02220192
  • KCNI: Canton, GA, United States
    KCNI 191855Z AUTO 00000KT 7SM +RA SCT037 BKN060 OVC080 23/18 A2998 RMK AO2 LTG DSNT NW P0002 T02260180
  • KCVC: Covington, GA, United States
    KCVC 192135Z AUTO 12005KT 10SM +RA SCT038 SCT049 SCT065 25/18 A2993 RMK AO2
  • KDNV: Danville, Vermilion County Airport, IL, United States
    KDNV 192135Z AUTO 16010KT 10SM +RA SCT065 SCT075 32/17 A2991 RMK AO2 T03180165
  • KF45: North Palm Beach County AP, FL, United States
    KF45 191955Z AUTO 35020G27KT 3/4SM +RA BKN003 BKN025 OVC037 24/23 A2992 RMK AO2 TSNO
  • KGGI: Grinnell, IA, United States
    KGGI 192135Z AUTO 13006KT 5SM +RA SCT026 BKN041 OVC070 19/15 A2996 RMK AO2 P0008 T01880149
  • KLIC: Limon, Limon Municipal Airport, CO, United States
    KLIC 192040Z AUTO 31015G38KT 280V350 2 1/2SM VCTS +RA FEW050 SCT070 OVC100 18/04 A2986 RMK AO2 PK WND 24038/2036 LTG DSNT ALQDS RAB32 TSB21E36 PRESRR P0001 T01830044
  • KMHP: Metter, GA, United States
    KMHP 192015Z AUTO 03003KT 3 1/2SM +RA BR OVC090 19/19 A2989 RMK AO2 LTG DSNT E THRU S P0007 T01930190
  • KNRN: Norton, KS, United States
    KNRN 191755Z AUTO 09006G17KT 3SM +RA SCT014 BKN040 OVC050 15/11 A2994 RMK AO2
  • KOKZ: Sandersville Kaolin, GA, United States
    KOKZ 192055Z AUTO 35005KT 4SM +RA BR BKN018 OVC026 21/20 A2992 RMK AO2 P0008 T02120197 60009
  • KPEA: Pella, Pella Municipal Airport, IA, United States
    KPEA 192115Z AUTO 32012G53KT 2 1/2SM +RA SCT022 BKN070 OVC080 19/15 A2996 RMK AO2 VIS 1V5 P0013 T01920148
  • KPXE: Perry, GA, United States
    KPXE 191815Z AUTO 33009G17KT 7SM +RA SCT030 BKN055 OVC120 A2992 RMK AO2 LTG DSNT SE
    KPXE 191955Z AUTO 10004KT 2 1/2SM +RA BR SCT027 BKN039 OVC050 22/21 A2992 RMK AO2 T02190208
    KPXE 192015Z AUTO 00000KT 7SM +RA BR SCT034 BKN048 OVC060 22/21 A2992 RMK AO2 T02230208
  • KQHB: UNKNOWN,
    KQHB 191755Z AUTO 36003KT 8000 +RA FEW011 BKN044 BKN055 BKN075 OVC090 15/13 A2993 RMK AO2 SLP138 P0020 60033 T01510128 10211 20151 57014 $
    KQHB 191855Z AUTO 00000KT 9999 +RA SCT038 BKN050 OVC065 14/13 A2990 RMK AO2 SLP128 P0022 T01440129 $
  • KSVN: Hunter U. S. Army Airfield, GA, United States
    KSVN 191943Z 02016G22KT 5SM VCTS +RA FEW010 BKN017 BKN032 OVC039 22/19 A2987 RMK AO2A WSHFT 34 DZB33E34RAB34 CIG 017V037 PRESRR SLP118 VISNO RWY10 $
    KSVN 191948Z 03018G22KT 7/8SM R28/2000VP6000FT VCTS +RA BR FEW010 BKN014 BKN019 OVC034 21/19 A2986 RMK AO2A VIS 7/8V9 DZB33E34RAB34 CIG 014V019 BKN014 V FEW CIG 011 RWY10 SLP115 VISNO RWY10 $
    KSVN 191955Z 04015G28KT 5/8SM R28/2000V4000FT VCTS +RA BR FEW011 OVC021 21/19 A2985 RMK AO2A PK WND 03028/52 VIS 1/2V3 DZB33E34RAB34 CIG 014V021 CIG 015 RWY10 SLP111 P0068 T02060189 VISNO RWY10 $
  • KTBR: Statesboro, GA, United States
    KTBR 192055Z AUTO 00000KT 3SM +RA SCT005 BKN013 OVC070 19/18 A2990 RMK AO2 LTG DSNT S T01900178
  • LEBB: Bilbao / Sondica, Spain
    LEBB 191747Z 30005KT 240V340 7000 +RA BKN017 BKN030 14/14 Q1012
  • LFBP: Pau, France
    LFBP 191800Z AUTO 30006KT 270V330 1800 0800 R31/1300U R13/1800D +RA BCFG SCT020/// BKN025/// BKN033/// //////TCU 14/13 Q1011
    LFBP 191800Z AUTO 30006KT 270V330 1800 0800 R31/1300U R13/1800D +RA BCFG SCT020/// BKN025/// BKN033/// ///TCU 14/13 Q1011
  • LFBZ: Biarritz, France
    LFBZ 192030Z AUTO 20003KT 5000 +RA BR BKN014/// BKN025/// BKN044/// //////CB 14/14 Q1012
    LFBZ 192030Z AUTO 20003KT 5000 +RA BR BKN014/// BKN025/// BKN044/// ///CB 14/14 Q1012
  • LFMV: Caumont, France
    LFMV 191930Z AUTO 17003KT 9999 +RA NSC 17/13 Q1010
  • NVVV: Bauerfield Efate, Vanuatu
    NVVV 191800Z 20005KT 2000 +RA SCT006 BKN018 OVC100 25/25 Q1009
    NVVV 191900Z VRB02KT 2000 +RA SCT006 BKN018 OVC100 25/25 Q1010
    NVVV 192000Z VRB01KT 1000 +RA SCT004 FEW018CB BKN020 OVC100 25/25 Q1011
  • PKWA: Kwajalein, Marshall Islands
    PKWA 191840Z AUTO 09024G31KT 1 3/4SM +RA BKN014 BKN028 OVC035 27/25 A2981
    PKWA 191840Z AUTO 09024G31KT 1 3/4SM +RA BKN014 BKN028 OVC035 27/25 A2981 RMK AO2 P0011 T02730250 TSNO
  • RJNY: Shizuhama Ab, Japan
    RJNY 191913Z 36002KT 2500 R09/1100VP1800D +SHRA BR FEW008 OVC025 SCT025TCU 16/15 Q1013 RMK 1ST008 8CU025 3TCU025 A2993 R1700 VIS W 2000M TCU OHD MOV NE RI++
    RJNY 192028Z 11003KT 070V150 2000 R09/0800VP1800D +SHRA BR FEW004 BKN020 SCT020TCU OVC040 16/16 Q1014 RMK 1ST004 7CU020 3TCU020 8CU040 A2994 R1400 TCU OHD MOV NE RI++
    RJNY 192030Z 10003KT 070V150 2000 R09/0800VP1800D +SHRA BR FEW004 BKN020 SCT020TCU OVC040 16/16 Q1013 RMK 1ST004 7CU020 3TCU020 8CU040 A2994 R1200 VIS SE-S 1500M TCU OHD MOV NE
  • RJTR: Zama Airfield, Japan
    RJTR 191805Z AUTO 32005KT 1 5/8SM +RA BR OVC045 14/13 A3001 RMK AO2 VIS 1 5/8V2 1/2 SLP164 $
    RJTR 191845Z AUTO 31003KT 2 3/4SM +RA BR OVC047 14/13 A2999 RMK AO2 SLP157 $
    RJTR 191915Z AUTO 34004KT 1 5/8SM +RA BR OVC040 14/13 A2998 RMK AO2 VIS 1 5/8V2 1/2 SLP154 $
  • RJTY: Yokota Ab, Japan
    RJTY 191855Z 00000KT 4SM +RA BR OVC034 14/12 A3001 RMK AO2A SLP164 P0015 T01380120 $
    RJTY 192110Z 03005KT 2SM +RA BR OVC023 14/13 A3000 RMK AO2A CIG 020 RWY18 PRESFR SLP161 $
  • VHHH: Hong Kong Inter-National Airport, Hong Kong
    VHHH 192118Z 10009KT 5000 +SHRA FEW010 SCT018 24/23 Q1005
    VHHH 192120Z 10010G21KT 4600 +SHRA FEW010 SCT018 24/23 Q1005
    VHHH 192130Z 10012KT 5000 +SHRA FEW010 SCT018 24/23 Q1005
  • VOTV: Thiruvananthapuram, India
    VOTV 192130Z 35013KT 1500 +RA FEW010 SCT012 FEW025CB BKN080 26/23 Q1004
    VOTV 192130Z 35013KT 3000 +RA FEW008 SCT012 FEW025CB BKN080 26/23 Q1004
  • WIDD: Hang Nadim, Indonesia
    WIDD 192130Z 21004KT 3000 R04/1000 +RA BKN013 24/24 Q1008 NOSIG
6 stations reporting unknown precipitation type

  • CYQF: Red Deer, Alta., Canada
    CYQF 191844Z AUTO 33019G29KT 5SM -RA UP BKN031 BKN041 OVC055 05/02 A2990 RMK LTNG DIST SE PCPN 1.3MM PAST HR SLP156
  • KFWB: Branson West, MO, United States
    KFWB 192135Z AUTO 13009G15KT 090V160 10SM UP FEW050 30/18 A2993 RMK AO2
  • KMDS: Madison, SD, United States
    KMDS 192115Z AUTO 15011G17KT 10SM UP 18/09 A2984 RMK AO2 TSNO
  • KMLJ: Milledgeville, Baldwin County Airport, GA, United States
    KMLJ 192135Z AUTO VRB04KT 5SM UP HZ BKN039 25/19 A2992 RMK AO2
  • PAPH: Port Heiden, Port Heiden Airport, AK, United States
    PAPH 191756Z AUTO 26018G23KT 1 1/2SM UP BR OVC004 03/03 A2996 RMK AO2 SLP147 P0000 60001 T00280028 10028 20022 53013 $
    PAPH 191810Z AUTO 26017G23KT 2SM UP BR OVC004 03/03 A2997 RMK AO2 P0000 $
    PAPH 191924Z AUTO 25015G21KT 3SM UP BR OVC004 03/03 A3000 RMK AO2 UPB08 P0000 $
    PAPH 191930Z AUTO 25017KT 1 3/4SM UP BR OVC004 03/03 A3000 RMK AO2 UPB08 P0000 $
  • PAQT: Nuiqsut, Nuiqsut Airport, AK, United States
    PAQT 191753Z AUTO 07018KT 8SM UP OVC008 M02/M04 A3008 RMK AO2 UPB08E18B48 SLP186 P0000 60000 T10221044 11017 21028 58005 TSNO $
    PAQT 191853Z AUTO 07019KT 10SM UP OVC009 M02/M04 A3007 RMK AO2 UPE09B27 SLP184 P0000 T10171039 TSNO $
    PAQT 191935Z AUTO 08018KT 8SM UP OVC010 M01/M03 A3007 RMK AO2 UPE1854B10SNB27E33 P0000 T10111033 TSNO $
    PAQT 191953Z AUTO 07017KT 10SM UP OVC011 M01/M04 A3007 RMK AO2 UPE1854B10SNB27E33 SLP183 P0000 T10111039 TSNO $
    PAQT 192053Z AUTO 06019KT 10SM UP OVC014 M01/M04 A3007 RMK AO2 SNB02E12 SLP182 P0000 60000 T10061039 56004 TSNO $


0 stations reporting ice accretion in the past 1 hour

0 stations reporting ice accretion in the past 3 hours

0 stations reporting ice accretion in the past 6 hours

0 stations reporting hourly snow depth increase (SNINCR) of 3+"

0 stations reporting hourly snow depth increase (SNINCR) of 2"

0 stations reporting hourly snow depth increase (SNINCR) of 1"

0 stations reporting hourly (melted) precip total of 3" or greater

0 stations reporting hourly (melted) precip total of 2-2.99"

3 stations reporting hourly (melted) precip total of 1-1.99"

  • KMHP: Metter, GA, United States [1.23in]
    KMHP 191835Z AUTO 33009G18KT 1/2SM +TSRA FG BKN008 OVC019 19/19 A2992 RMK AO2 LTG DSNT ALQDS P0109 T01940188
    KMHP 191855Z AUTO 34006KT 5SM +TSRA BR SCT008 BKN050 OVC065 19/19 A2992 RMK AO2 LTG DSNT ALQDS P0123 T01910186
  • KNBC: Beaufort, Marine Corps Air Stn, SC, United States [1.13in]
    KNBC 191752Z 00000KT 1/4SM -TSRA BKN016 BKN029 OVC090 21/19 A2986 RMK AO2 PK WND 34059/1722 WSHFT 1709 SFC VIS 9 RAB05 P0113
    KNBC 191756Z 00000KT 1/4SM -TSRA BKN023 BKN036 OVC095 21/20 A2986 RMK AO2 PK WND 34059/1722 WSHFT 1709 SFC VIS 10 RAB05 SLP113 P0113 60113 T02110200 10289 20189 55010
  • KVDI: Vidalia, Vidalia Municipal Airport, GA, United States [1.53in]
    KVDI 191855Z AUTO 35005G15KT 2 1/2SM +TSRA BKN016 BKN036 OVC075 20/18 A2987 RMK AO2 LTG DSNT ALQS P0153
11 stations reporting hourly (melted) precip total of 0.5-0.99"

  • KARW: Beaufort, SC, United States [0.85in]
    KARW 191835Z AUTO 08003KT 10SM -TSRA SCT019 BKN024 OVC090 20/17 A2988 RMK AO2 LTG DSNT ALQDS P0063
    KARW 191855Z AUTO 17003KT 4SM +TSRA SCT007 BKN012 BKN020 20/18 A2988 RMK AO2 LTG DSNT ALQDS P0085
  • KFPR: Fort Pierce, St. Lucie County Intl Arpt, FL, United States [0.67in]
    KFPR 191751Z 17006KT 7SM -TSRA FEW025 BKN039 OVC090 23/21 A2992 RMK AO2 PK WND 16027/1703 WSHFT 1726 LTG DSNT ALQDS P0066
    KFPR 191753Z VRB06KT 6SM TSRA BR FEW025 BKN039 OVC090 23/21 A2992 RMK AO2 PK WND 16027/1703 WSHFT 1726 LTG DSNT ALQDS SLP132 P0067 60069 T02280206 10350 20217 55001
  • KJZP: Jasper, GA, United States [0.52in]
    KJZP 191935Z AUTO 16005KT 10SM -RA SCT009 BKN042 OVC060 20/19 A2998 RMK AO2 P0052 T02000189
    KJZP 191955Z AUTO 15005KT 10SM SCT042 SCT060 SCT085 21/20 A2997 RMK AO2 P0052 T02130198
  • KOKZ: Sandersville Kaolin, GA, United States [0.62in]
    KOKZ 191755Z AUTO 03008KT 10SM -TSRA SCT012 BKN060 OVC080 20/19 A2993 RMK AO2 LTG DSNT SE AND S P0062 T01970192 10246 20186 60120
  • KRSL: Russell, Russell Municipal Airport, KS, United States [0.54in]
    KRSL 192053Z AUTO 1/2SM +TSRA FG BKN011 BKN055 OVC090 19/17 A2972 RMK AO2 PK WND 33071/2042 WSHFT 2030 LTG DSNT ALQDS RAB42 SLP053 P0054 60054 T01890172 56035
  • KRVJ: Reidsville, GA, United States [0.74in]
    KRVJ 191935Z AUTO 00000KT 4SM TSRA BR SCT005 BKN075 OVC085 19/ A2989 RMK AO2 LTG DSNT ALQDS P0072 T0192////
    KRVJ 191955Z AUTO 05007KT 10SM -TSRA SCT070 BKN095 OVC120 19/ A2990 RMK AO2 LTG DSNT ALQDS P0074 T0190////
  • KSAV: Savannah, GA, United States [0.65in]
    KSAV 191938Z 05010G16KT 1/4SM R10/1400V2800FT +TSRA FG FEW006 BKN013CB OVC020 21/19 A2990 RMK AO2 PK WND 03031/1859 WSHFT 1840 LTG DSNT ALQDS CONS LTGICCA ALQDS TS OHD AND ALQDS MOV SE CB DSNT ALQDS P0065 T02060194
  • KSVN: Hunter U. S. Army Airfield, GA, United States [0.68in]
    KSVN 191955Z 04015G28KT 5/8SM R28/2000V4000FT VCTS +RA BR FEW011 OVC021 21/19 A2985 RMK AO2A PK WND 03028/52 VIS 1/2V3 DZB33E34RAB34 CIG 014V021 CIG 015 RWY10 SLP111 P0068 T02060189 VISNO RWY10 $
  • KVDI: Vidalia, Vidalia Municipal Airport, GA, United States [0.96in]
    KVDI 191835Z AUTO 02018G23KT 1/2SM +TSRA BKN011 OVC015 20/18 A2987 RMK AO2 LTG DSNT ALQS P0096
  • KVRB: Vero Beach, FL, United States [0.92in]
    KVRB 191813Z VRB03KT 1/4SM +TSRA BKN018 OVC046 25/22 A2995 RMK AO2 LTG DSNT ALQDS P0053 T02500222
    KVRB 191825Z 13010KT 1SM -TSRA BR BKN018 OVC060 24/22 A2994 RMK AO2 LTG DSNT ALQDS P0092 T02440222
    KVRB 191831Z 11012KT 6SM BR BKN020 BKN055 OVC085 25/23 A2993 RMK AO2 LTG DSNT ALQDS RAE31 TSE31 P0092 T02500228
    KVRB 191844Z 09007KT 6SM BR FEW021 SCT060 BKN120 25/23 A2993 RMK AO2 LTG DSNT ALQDS RAE31 TSE31 P0092 T02500228
    KVRB 191853Z 09003KT 4SM VCTS -RA BR FEW060 SCT110 24/23 A2992 RMK AO2 LTG DSNT ALQDS RAE31B51 TSE31 SLP132 P0092 T02440228
  • KX26: Valkaria AFS Sebastian, FL, United States [0.81in]
    KX26 191935Z AUTO 07012G18KT 1SM +TSRA BR BKN008 BKN014 OVC035 23/21 A2989 RMK AO2 LTG DSNT ALQDS P0081 T02260212
    KX26 191955Z AUTO 09006KT 10SM VCTS SCT006 SCT014 SCT080 24/22 A2990 RMK AO2 LTG DSNT NE THRU SE P0081 T02400215
0 stations reporting 3 or 6 hourly (melted) precip total of 5" or greater

0 stations reporting 3 or 6 hourly (melted) precip total of 4-4.99"

0 stations reporting 3 or 6 hourly (melted) precip total of 3-3.99"

1 station reporting 3 or 6 hourly (melted) precip total of 2-2.99"

  • PKMR: Majuro Atoll NWS Office, Marshall Islands [2.03in]
    PKMR 191751Z 00000KT 15SM SCT014TCU BKN045 OVC110 26/25 A2979 RMK SHRAE05RAB05E39 TCU ALQDS SLP090 60203 8/87/ T02630246 10263 20259 5300


0 stations reporting tornado, funnel cloud or waterspout

0 stations reporting mammatus cloud

1 station reporting hail

  • CWSW: Sparwood / Elk Valley, Canada [3mm]
    CWSW 191830Z 00000KT 15SM -SHGR BKN047TCU BKN060 08/M01 A2994 RMK TCU6SC1 HAIL DIAM 03 MM SLP162
    CWSW 191900Z 27003KT 130V290 15SM -SHGR BKN049TCU BKN076 05/02 A2994 RMK TCU7AC1 AC TR HAIL DIAM 2 MM SLP167
0 stations reporting thundersnow

0 stations reporting thundersleet

0 stations reporting thunder with freezing rain

75 stations reporting thunder with rain

  • CYGL: La Grande Riviere, Que, Canada
    CYGL 191747Z 18011G19KT 12SM -TSRA SCT013 BKN050CB BKN070 16/14 A2960 RMK SC3CB3AC1 CB NE MOV E OCNL LTGIC NE SLP033 DENSITY ALT 1300FT
    CYGL 191800Z 18010G15KT 12SM -TSRA SCT013 BKN050CB BKN150 OVC240 16/15 A2961 RMK SC3CB3AC1CI1 CB NE OCNL LTGIC NE SLP035 DENSITY ALT 1300FT
    CYGL 191852Z 18007KT 12SM -TSRA BKN009 OVC016 17/16 A2960 RMK SF6SC2 CB EMBD SW SLP031 DENSITY ALT 1400FT
    CYGL 191900Z 18009KT 15SM -TSRA BKN009 BKN018 OVC025 17/16 A2959 RMK SF5SC2SC1 CB EMBD S SLP030 DENSITY ALT 1400FT
  • CYQL: Lethbridge, Alta., Canada
    CYQL 191907Z VRB02KT 30SM -TSRA SCT039CB BKN050 BKN080 BKN250 10/02 A2992 RMK CB4SC2AC1CI1 CI TR OCNL LTGCGIC W SLP152
    CYQL 192000Z 06009KT 25SM -TSRA FEW025 BKN043CB BKN065 07/03 A2993 RMK CF1CB5SC2 FRQ LTGICCG SW SLP163
    CYQL 192000Z CCA 06009KT 25SM -TSRA FEW025 BKN043CB OVC065 07/03 A2993 RMK CF1CB5SC2 FRQ LTGICCG SW SLP163
  • CYYC: Calgary International, Alta., Canada
    CYYC 192001Z 27015KT 15SM -TSRA BKN033CB BKN150 10/02 A2990 RMK CB6AC1 PRESRR SLP153 DENSITY ALT 3900FT
    CYYC 192008Z 32030G37KT 250V330 15SM -TSRA BKN021CB BKN150 07/01 A2993 RMK CB7AC1 AC TR PRESRR SLP168
  • CYZR: Sarnia Airport, Canada
    CYZR 192127Z AUTO 01016G21KT 9SM -TSRA OVC066 19/16 A2991 RMK LTNG DIST ALQDS WSHFT AT 2113Z PRESRR SLP131 DENSITY ALT 1300FT
  • DAAE: Bejaia, Algeria
    DAAE 192100Z 07003KT 9999 TSRA FEW016 FEW026CB SCT040 20/17 Q1011
  • DAAP: Illizi, Algeria
    DAAP 191825Z 23022G39KT 1000 TSRA BLSA FEW046CB SCT100 34/13 Q1012
  • DABB: Annaba, Algeria
    DABB 191800Z 05009KT 9999 -TSRA FEW020 FEW026CB BKN200 20/18 Q1008
    DABB 191830Z 04009KT 9999 -TSRA FEW020 FEW026CB BKN200 19/18 Q1009
    DABB 191900Z 02003KT 330V060 9999 -TSRA FEW016 FEW026CB SCT033 19/18 Q1010
    DABB 191930Z 07007KT 030V110 9999 -TSRA FEW016 FEW026CB SCT033 19/18 Q1008
  • DABC: Constantine, Algeria
    DABC 191800Z 12012KT 9999 -TSRA FEW030 FEW033CB SCT100 18/16 Q1009
  • DAOI: Chlef, Algeria
    DAOI 191900Z 32010KT 9999 -TSRA SCT026 FEW030CB 22/06 Q1009
  • EBFS: Florennes, Belgium
    EBFS 191803Z 30003KT 6000 -TSRA FEW010 BKN020CB 16/12 Q1011 WHT BLU
    EBFS 191825Z 32009KT 6000 -TSRA FEW010 BKN020CB 15/10 Q1011 WHT BLU
    EBFS 191855Z 29006KT 6000 -TSRA FEW010 BKN020CB 14/09 Q1011 WHT BLU
  • EBLG: Bierset, Belgium
    EBLG 191750Z VRB01KT 9999 -TSRA FEW015 BKN034CB 13/10 Q1011 NOSIG
  • EHEH: Eindhoven, Netherlands
    EHEH 191802Z AUTO 22003KT 190V320 5000 TSRA FEW006 BKN015CB OVC046 14/13 Q1011 WHT
    EHEH 191812Z AUTO 31004KT 310V030 6000 TSRA FEW005 BKN015CB BKN059 14/13 Q1011 WHT
    EHEH 191816Z AUTO 33005KT 310V030 6000 TSRA BKN015CB SCT049 BKN056 14/13 Q1011 WHT
    EHEH 191831Z AUTO 36008KT 260V040 6000 TSRA FEW011 BKN015CB BKN043 14/13 Q1011 WHT
    EHEH 191836Z AUTO 30005KT 240V340 9999 TSRA FEW011 BKN015CB BKN051 BKN057 14/13 Q1011 WHT
  • EHVK: Volkel, Netherlands
    EHVK 191755Z AUTO 27005KT 220V290 9999 TSRA FEW001 BKN015CB BKN064 14/13 Q1011 WHT
    EHVK 191759Z AUTO 25005KT 210V290 9999 TSRA FEW001 BKN015CB OVC071 14/13 Q1011 WHT
    EHVK 191803Z AUTO 24004KT 210V270 9999 TSRA FEW001 BKN015CB BKN068 OVC074 14/13 Q1011 WHT
    EHVK 191807Z AUTO 25004KT 9999 TSRA FEW001 BKN015CB BKN068 14/13 Q1011 WHT
    EHVK 191808Z AUTO 26004KT 9999 TSRA BKN015CB BKN052 BKN058 OVC071 14/13 Q1011 WHT
    EHVK 191815Z AUTO 26004KT 210V280 9000 TSRA BKN015CB SCT049 BKN053 OVC070 14/13 Q1011 WHT
    EHVK 191816Z AUTO 24005KT 210V280 7000 TSRA BKN015CB SCT049 BKN060 14/13 Q1010 WHT
  • EPBY: Bydgoszcz Ignacy Jan Paderewski Airport, Poland
    EPBY 191800Z 20008G18KT 100V230 9999 -TSRA BKN032CB 19/11 Q1011
  • EPLB: Lublin, Poland
    EPLB 191930Z 18007KT 9999 -TSRA BKN048CB 18/12 Q1012
  • EYSA: Siauliai Intl./Mil., Lithuania
    EYSA 191820Z 06009KT 9999 -TSRA FEW051CB BKN100 17/12 Q1013 NOSIG
  • HKKI: Kisumu, Kenya
    HKKI 191800Z 24010KT 9999 -TSRA FEW020CB BKN080 20/18 Q1018
  • HRYR: Kigali, Rwanda
    HRYR 191900Z 16014KT 9999 -TSRA FEW022CB BKN023 19/19 Q1022 NOSIG
    HRYR 191930Z 16010KT 9999 -TSRA FEW022CB BKN023 18/17 Q1022 NOSIG
    HRYR 192000Z 23009KT 200V260 9999 -TSRA FEW022CB BKN023 BKN100 18/16 Q1022 NOSIG
    HRYR 192030Z 31005KT 8000 -TSRA FEW022CB BKN023 BKN100 18/17 Q1023 NOSIG
    HRYR 192100Z 36004KT 9999 -TSRA FEW022CB BKN023 BKN100 17/17 Q1022 NOSIG
    HRYR 192130Z 30005KT 260V330 9999 -TSRA FEW022CB BKN023 BKN100 18/18 Q1022 NOSIG
  • K24A: Sylva, NC, United States
    K24A 192045Z AUTO 10006KT 2 1/2SM -TSRA BR SCT039 BKN047 OVC095 19/16 A3001 RMK AO2 LTG DSNT SE P0004 T01870165 60004
  • K2J5: Millen, GA, United States
    K2J5 191835Z AUTO 26003KT 10SM -TSRA OVC021 22/20 A2992 RMK AO2 LTG DSNT SE THRU SW T02200202
  • K36K: Lakin, KS, United States
    K36K 192135Z AUTO 24023G44KT 2 1/2SM -TSRA HZ FEW047 BKN060 OVC090 18/12 A2984 RMK AO2 VIS 1 1/4V5
  • K4V0: Rangely, CO, United States
    K4V0 192015Z AUTO 28027G39KT 7SM TSRA SCT065 BKN075 OVC100 16/06 A2993 RMK AO2 LTG DSNT ALQS T01590059
  • KAIA: Alliance, Alliance Municipal Airport, NE, United States
    KAIA 192012Z AUTO 17017G26KT 10SM -TSRA BKN090 BKN110 19/13 A2976 RMK AO2 PK WND 16028/1959 LTG DSNT SW-N RAB10 TSB06 PRESRR P0000 T01890133 $
  • KARW: Beaufort, SC, United States
    KARW 191815Z AUTO 00000KT 7SM TSRA SCT006 SCT028 BKN080 20/16 A2988 RMK AO2 LTG DSNT ALQDS P0031
    KARW 191835Z AUTO 08003KT 10SM -TSRA SCT019 BKN024 OVC090 20/17 A2988 RMK AO2 LTG DSNT ALQDS P0063
    KARW 191915Z AUTO 10008KT 1 3/4SM TSRA SCT010 SCT080 BKN110 20/19 A2986 RMK AO2 LTG DSNT ALQDS P0016
    KARW 191955Z AUTO 26005KT 4SM TSRA SCT012 SCT021 OVC044 21/20 A2988 RMK AO2 LTG DSNT ALQDS P0028
    KARW 192015Z AUTO 00000KT 5SM TSRA SCT023 BKN060 OVC100 21/21 A2988 RMK AO2 LTG DSNT ALQDS P0003
    KARW 192035Z AUTO 00000KT 4SM TSRA SCT050 BKN090 OVC110 21/21 A2988 RMK AO2 LTG DSNT ALQDS P0007
    KARW 192115Z AUTO 29004KT 4SM -TSRA SCT016 BKN050 OVC070 21/21 A2988 RMK AO2 LTG DSNT ALQDS P0002
  • KBFF: Scottsbluff, Heilig Field, NE, United States
    KBFF 191919Z AUTO 11008G17KT 10SM -TSRA SCT032 SCT046 BKN080 23/12 A2973 RMK AO2 PK WND 32028/1903 LTG DSNT N AND SE TSB01 P0014 T02280117
  • KBHC: Baxley Airport, GA, United States
    KBHC 191955Z AUTO 35013G16KT 2 1/2SM -TSRA SCT012 BKN027 OVC038 A2990 RMK AO2 VIS 3/4V5 LTG DSNT ALQS
  • KC07: Walton Peak, CO, United States
    KC07 191835Z AUTO 29012G22KT 280V350 10SM -TSRA SCT016 BKN023 OVC040 04/01 A3017 RMK AO2 LTG DSNT E SW AND W
    KC07 191855Z AUTO 23006G19KT 200V260 4SM TSRA SCT004 BKN009 OVC023 01/01 A3017 RMK AO2 LTG DSNT SW THRU NE
  • KCUT: Custer, Custer County Airport, SD, United States
    KCUT 192130Z AUTO 2 1/2SM -TSRA FEW037 BKN080 OVC110 15/07 A2979 RMK AO2 PK WND 30031/2130 LTG DSNT S-W RAB19 TSB25 PRESRR P0000 T01500067
    KCUT 192137Z AUTO 28013G26KT 1 1/4SM TSRA FEW042 BKN065 OVC110 08/04 A2980 RMK AO2 PK WND 31033/2131 LTG DSNT ALQDS RAB19 TSB25 P0026 T00830044
    KCUT 192142Z AUTO 33008G26KT 300V360 3SM -TSRA FEW045 BKN065 OVC080 08/05 A2979 RMK AO2 PK WND 31033/2131 LTG DSNT ALQDS RAB19 TSB25 P0028 T00830050
  • KDBN: Dublin, GA, United States
    KDBN 191755Z AUTO 34005KT 10SM -TSRA SCT036 BKN050 OVC110 19/17 A2994 RMK AO2 LTG DSNT NE AND SW
  • KDSM: Des Moines, Des Moines Intl Arpt, IA, United States
    KDSM 191749Z 29005KT 10SM -TSRA SCT070CB BKN085 BKN110 OVC130 21/09 A3003 RMK AO2 LTG DSNT S AND SW RAB35 TSB49 OCNL LTGICCG S-SW TS S-SW MOV NE P0000
    KDSM 191754Z 00000KT 10SM -TSRA SCT070CB BKN085 BKN110 OVC130 21/09 A3002 RMK AO2 LTG DSNT S AND SW RAB35 TSB49 SLP161 OCNL LTGICCG SE-SW TS SE-SW MOV NE P0000 60000 T02110094 10244 20167 58002
    KDSM 191954Z 12008G17KT 10SM -TSRA FEW050 BKN080CB BKN100 BKN150 OVC250 21/13 A2993 RMK AO2 LTG DSNT NE-SE SLP131 RAB13 TSB1857 OCNL LTGICCG VC SE-S AND W TS VC SE-S AND W MOV NE P0002 T02110128
  • KFPR: Fort Pierce, St. Lucie County Intl Arpt, FL, United States
    KFPR 191751Z 17006KT 7SM -TSRA FEW025 BKN039 OVC090 23/21 A2992 RMK AO2 PK WND 16027/1703 WSHFT 1726 LTG DSNT ALQDS P0066
    KFPR 191753Z VRB06KT 6SM TSRA BR FEW025 BKN039 OVC090 23/21 A2992 RMK AO2 PK WND 16027/1703 WSHFT 1726 LTG DSNT ALQDS SLP132 P0067 60069 T02280206 10350 20217 55001
    KFPR 191757Z 14008KT 130V200 1 1/2SM TSRA BR SCT022 BKN039 OVC090 23/21 A2990 RMK AO2 VIS 1/2V5 LTG DSNT ALQDS P0010 T02280206
    KFPR 191808Z 09005G23KT 3SM -TSRA BR SCT026 BKN040 OVC060 23/21 A2993 RMK AO2 LTG DSNT ALQDS P0012 T02330211
  • KGTF: Great Falls, Great Falls Intl Arpt, MT, United States
    KGTF 192001Z 25006KT 6SM -TSRA SCT050 BKN065 OVC095 06/02 A2995 RMK AO2 TSB1955 P0003 T00610017 $
  • KHJH: Hebron, Hebron Municipal Airport, NE, United States
    KHJH 192135Z AUTO 00000KT 10SM -TSRA BKN070 BKN080 BKN120 20/14 A2986 RMK AO2 LTG DSNT ALQS T01980136
  • KHSI: Hastings, Hastings Municipal Airport, NE, United States
    KHSI 192027Z AUTO 12021G28KT 8SM -TSRA FEW055 SCT075 OVC100 16/13 A2980 RMK AO2 PK WND 13028/2027 WSHFT 2007 LTG DSNT ALQDS TSB21 PRESFR P0004 T01560133
  • KHXD: Hilton Head, SC, United States
    KHXD 191936Z VRB05G10KT 5SM -TSRA FEW026 SCT050 20/19 A2990
    KHXD 191950Z VRB05G12KT 5SM TSRA BKN022 OVC065 20/19 A2919
  • KHYS: Hays Municipal, KS, United States
    KHYS 191928Z AUTO 08015KT 10SM -TSRA FEW070 23/17 A2972 RMK AO2 PK WND 10026/1859 LTG DSNT SW-NW TSB22RAB1858 PRESFR P0000
    KHYS 191956Z AUTO 31014G17KT 10SM TSRA FEW028 OVC047 23/17 A2974 RMK AO2 PK WND 10026/1859 LTG DSNT ALQDS TSB22RAB1858 SLP059 T02280172 PNO $
    KHYS 192038Z AUTO 02017KT 10SM TSRA FEW006 BKN060 BKN070 18/16 A2973 RMK AO2 PK WND 31039/2000 WSHFT 2004 LTG DSNT ALQDS
  • KIEN: Pine Ridge, Pine Ridge Airport, SD, United States
    KIEN 192100Z AUTO 20026G40KT 2 1/2SM TSRA FEW060 OVC090 18/14 A2971 RMK AO2 PK WND 21040/2058 LTG DSNT ALQDS TSB2058 PRESRR P0005 T01830144
    KIEN 192115Z AUTO 19018G30KT 5SM -TSRA SCT055 OVC090 17/14 A2970 RMK AO2 PK WND 21040/2058 LTG DSNT NW-NE TSB2058 P0011 T01670139
  • KJYL: Sylvania, Plantation Airpark, GA, United States
    KJYL 191815Z AUTO 00000KT 5SM -TSRA BKN050 BKN060 OVC080 20/20 A2990 RMK AO2 LTG DSNT SE THRU W P0001 T02040200
    KJYL 191835Z AUTO 00000KT 5SM TSRA SCT018 BKN050 OVC060 21/20 A2991 RMK AO2 LTG DSNT ALQS P0002 T02050201
    KJYL 191955Z AUTO 00000KT 3SM TSRA SCT024 BKN029 OVC046 21/21 A2991 RMK AO2 LTG DSNT E THRU SW P0024 T02100205
  • KJZI: Charleston, SC, United States
    KJZI 191955Z AUTO 05014KT 1/4SM -TSRA FG SCT004 BKN009 OVC023 22/21 A2988 RMK AO2 LTG DSNT ALQDS
    KJZI 192015Z AUTO 03008G16KT 1/4SM -TSRA FG BKN006 BKN017 OVC026 21/21 A2989 RMK AO2 LTG DSNT ALQDS
  • KLHW: Ft. Stewart, GA, United States
    KLHW 191955Z 34019G26KT 6SM -TSRA BR BKN023 OVC047 20/18 A2983 RMK AO2A PK WND 34033/40 RAB27 TSB29 SLP104 P0036 T01980183 $
  • KLRO: Mt. Pleasant, SC, United States
    KLRO 191835Z AUTO VRB06G11KT M1/4SM TSRA OVC003 21/21 A2987 RMK AO2 LTG DSNT ALQDS
    KLRO 191855Z AUTO 00000KT 3/4SM -TSRA BKN003 BKN007 OVC029 22/22 A2988 RMK AO2 LTG DSNT ALQDS
    KLRO 191955Z AUTO 00000KT 1SM TSRA 21/21 A2988 RMK AO2 LTG DSNT NE AND S AND SW
  • KMHE: Mitchell, Mitchell Municipal Airport, SD, United States
    KMHE 191949Z AUTO 16017G25KT 5SM -TSRA FEW019 BKN075 OVC095 18/12 A2983 RMK AO2 LTG DSNT SW-N TSB43 P0002
    KMHE 191953Z AUTO 15012G25KT 3SM TSRA FEW023 SCT060 OVC090 17/13 A2983 RMK AO2 LTG DSNT N AND SW TSB43 SLP100 P0004 T01670128
  • KMTC: Selfridge ANG Base, MI, United States
    KMTC 192136Z 14011KT 5SM -TSRA BKN065CB BKN090 BKN230 26/18 A2986 RMK AO2A OCNL LTGICCG SW-NW TSB22 TS 4SW-2NW MOV SE SLP114 $
  • KNBC: Beaufort, Marine Corps Air Stn, SC, United States
    KNBC 191752Z 00000KT 1/4SM -TSRA BKN016 BKN029 OVC090 21/19 A2986 RMK AO2 PK WND 34059/1722 WSHFT 1709 SFC VIS 9 RAB05 P0113
    KNBC 191756Z 00000KT 1/4SM -TSRA BKN023 BKN036 OVC095 21/20 A2986 RMK AO2 PK WND 34059/1722 WSHFT 1709 SFC VIS 10 RAB05 SLP113 P0113 60113 T02110200 10289 20189 55010
    KNBC 191800Z AUTO 13004KT 10SM -TSRA SCT025 BKN036 OVC095 22/21 A2987 RMK AO2 P0001 T02170206
    KNBC 191856Z AUTO 11003KT 4SM TSRA BR FEW045 BKN070 OVC100 21/20 A2986 RMK AO2 SLP113 P0007 T02110200 $
    KNBC 192006Z AUTO 00000KT 4SM -TSRA BR 23/22 A2988 RMK AO2 RAB1957 TSB00 P0001 T02280217 $
    KNBC 192025Z AUTO 25005KT 1 3/4SM TSRA BR FEW055 FEW095 OVC110 23/22 A2989 RMK AO2 RAB1957 TSB00E21B25 P0004 T02280217 $
    KNBC 192035Z AUTO 31003KT 2 1/2SM TSRA BR FEW016 SCT090 OVC110 23/22 A2988 RMK AO2 RAB1957 TSB00E21B25 P0007 T02280217 $
    KNBC 192044Z AUTO 34004KT 3SM TSRA BR FEW016 BKN095 OVC110 23/22 A2988 RMK AO2 RAB1957 TSB00E21B25 P0009 T02280222 $
    KNBC 192056Z AUTO 33005KT 5SM -TSRA BR SCT019 BKN095 OVC110 23/22 A2988 RMK AO2 RAB1957 TSB00E21B25 SLP117 P0010 6//// T02330222 50004 $
  • KOKZ: Sandersville Kaolin, GA, United States
    KOKZ 191755Z AUTO 03008KT 10SM -TSRA SCT012 BKN060 OVC080 20/19 A2993 RMK AO2 LTG DSNT SE AND S P0062 T01970192 10246 20186 60120
  • KPBI: West Palm Beach, FL, United States
    KPBI 192053Z 34005KT 9SM -TSRA SCT021 BKN032CB BKN065 BKN250 26/22 A2988 RMK AO2 PK WND 35039/2016 LTG DSNT ALQDS RAB47 SLP119 OCNL LTGICCG ALQDS TS ALQDS MOV NE P0001 60001 T02610222 56004
  • KRSL: Russell, Russell Municipal Airport, KS, United States
    KRSL 192043Z AUTO 31042G71KT 260V340 4SM -TSRA SQ FEW025 BKN048 OVC110 24/17 A2968 RMK AO2 PK WND 33071/2042 WSHFT 2027 LTG DSNT ALQDS RAB42 P0002 T02440167
    KRSL 192128Z AUTO 5SM -TSRA SCT029 BKN070 OVC080 22/16 A2964 RMK AO2 LTG DSNT ALQDS P0038 T02170161
  • KRVJ: Reidsville, GA, United States
    KRVJ 191935Z AUTO 00000KT 4SM TSRA BR SCT005 BKN075 OVC085 19/ A2989 RMK AO2 LTG DSNT ALQDS P0072 T0192////
    KRVJ 191955Z AUTO 05007KT 10SM -TSRA SCT070 BKN095 OVC120 19/ A2990 RMK AO2 LTG DSNT ALQDS P0074 T0190////
  • KSAV: Savannah, GA, United States
    KSAV 191847Z AUTO 01020G29KT 10SM -TSRA SCT035CB BKN065 BKN240 24/19 A2984 RMK AO2 PK WND 36029/1847 LTG DSNT ALQDS RAB46 TSE28B46 FRQ LTGICCA N-E TS N-E MOV SE CB DSNT NW P0000
    KSAV 191847Z COR 01020G29KT 10SM -TSRA SCT035CB BKN065 BKN240 24/19 A2984 RMK AO2 PK WND 36029/1847 LTG DSNT ALQDS RAB46 TSE28B46 FRQ LTGICCA N-E TS N-E MOV SE CB DSNT NW P0000
    KSAV 191853Z 36015G30KT 10SM -TSRA FEW016 SCT024CB BKN065 BKN240 23/17 A2985 RMK AO2 PK WND 36030/1849 LTG DSNT ALQDS RAB46 TSE28B46 SLP107 FRQ LTGICCA NW-E TS NW-E MOV SE CB SW MOV E P0000 T02280172
    KSAV 191859Z 02021G31KT 10SM -TSRA FEW016 SCT024CB BKN045 BKN240 23/17 A2984 RMK AO2 PK WND 03031/1859 WSHFT 1840 LTG DSNT ALQDS FRQ LTGICCA N-E AND W TS N-E AND W MOV SE CB DSNT ALQDS P0000 T02280172
    KSAV 191924Z 32015KT 2SM R10/4000VP6000FT TSRA BR FEW016 SCT024CB BKN035 BKN240 21/19 A2989 RMK AO2 PK WND 03031/1859 WSHFT 1840 LTG DSNT ALQDS FRQ LTGICCA ALQDS TS OHD AND ALQDS MOV SE CB DSNT ALQDS P0005 T02110189
    KSAV 192001Z 07012KT 5SM -TSRA BR FEW006 BKN016CB OVC027 21/19 A2988 RMK AO2 LTG DSNT ALQDS FRQ LTGICCA ALQDS TS OHD AND ALQDS MOV S CB DSNT ALQDS P0010 T02060194
    KSAV 192040Z 08003KT 5SM -TSRA BR FEW006 SCT015 BKN027CB 21/19 A2989 RMK AO2 LTG DSNT ALQDS TSE25B40 OCNL LTGICCCCA ALQDS TS W-NW MOV SE CB DSNT ALQDS MOV SE P0016 T02060189
    KSAV 192053Z 00000KT 3SM -TSRA BR FEW006 SCT015 BKN027CB 21/18 A2990 RMK AO2 LTG DSNT ALQDS TSE25B40 SLP123 OCNL LTGICCCCA ALQDS TS W-NW MOV SE CB DSNT ALQDS MOV SE P0019 60159 T02060183 53019
  • KSEF: Sebring, FL, United States
    KSEF 191815Z AUTO 00000KT 10SM -TSRA SCT014 SCT027 BKN070 24/22 A2994 RMK AO2 LTG DSNT ALQDS P0001 T02420218
  • KTBR: Statesboro, GA, United States
    KTBR 191815Z AUTO 10008KT 1SM TSRA BKN004 OVC008 19/18 A2989 RMK AO2 LTG DSNT ALQS T01900177
    KTBR 191835Z AUTO 03007KT 7SM TSRA SCT006 SCT010 OVC060 19/18 A2989 RMK AO2 LTG DSNT ALQS T01940183
    KTBR 192035Z AUTO 35006KT 7SM TSRA SCT005 BKN031 OVC070 20/18 A2990 RMK AO2 LTG DSNT E THRU SW T01950183
  • KTOR: Torrington, WY, United States
    KTOR 191827Z AUTO 5SM -TSRA FEW070 OVC100 21/06 A2973 RMK AO2 RAB08 TSB21 P0005 T02110061
  • KVDI: Vidalia, Vidalia Municipal Airport, GA, United States
    KVDI 191915Z AUTO 01007KT 10SM TSRA SCT033 SCT055 OVC085 20/18 A2987 RMK AO2 LTG DSNT ALQS P0006
  • KVRB: Vero Beach, FL, United States
    KVRB 191753Z 08006KT 6SM -TSRA OVC047 27/24 A2993 RMK AO2 LTG DSNT ALQDS RAB53 TSE02B47 PRESRR SLP134 P0000 60028 T02670239 10333 20261 55005
    KVRB 191825Z 13010KT 1SM -TSRA BR BKN018 OVC060 24/22 A2994 RMK AO2 LTG DSNT ALQDS P0092 T02440222
    KVRB 191929Z 03006KT 4SM -TSRA BR FEW050 SCT090 BKN110 24/23 A2991 RMK AO2 LTG DSNT ALQDS TSB23 P0003 T02440233
  • KX26: Valkaria AFS Sebastian, FL, United States
    KX26 191915Z AUTO 13007KT 10SM TSRA SCT023 BKN033 OVC075 26/22 A2990 RMK AO2 LTG DSNT ALQDS T02650224
  • LEVD: Valladolid / Villanubla, Spain
    LEVD 191900Z 05007KT 020V080 9999 -TSRA FEW020 BKN045CB 09/08 Q1012 NOSIG
    LEVD 191930Z VRB02KT 8000 -TSRA FEW018 BKN045CB 09/08 Q1012 NOSIG
  • LFBL: Limoges, France
    LFBL 191900Z AUTO 23010KT 6000 1100 R21/P5000 R03/2100D TSRA FEW010/// BKN035/// BKN056/// //////CB 14/13 Q1011
    LFBL 191900Z AUTO 23010KT 6000 1100 R21/P5000 R03/2100D TSRA FEW010/// BKN035/// BKN056/// ///CB 14/13 Q1011
  • LFRD: Dinard, France
    LFRD 191930Z AUTO 06009KT 7000 TSRA SCT023/// BKN029/// BKN042/// //////CB 16/13 Q1013
    LFRD 191930Z AUTO 06009KT 7000 TSRA SCT023/// BKN029/// BKN042/// ///CB 16/13 Q1013
  • LFRN: Rennes, France
    LFRN 191930Z AUTO 02007KT 9999 -TSRA FEW026/// SCT060/// BKN078/// //////CB 15/12 Q1012
    LFRN 191930Z AUTO 02007KT 9999 -TSRA FEW026/// SCT060/// BKN078/// ///CB 15/12 Q1012
  • LHBP: Budapest / Ferihegy, Hungary
    LHBP 191947Z 08003KT 9999 -TSRA SCT50CB BKN097 20/14 Q1011
    LHBP 192000Z 06003KT 020V100 9999 -TSRA SCT050CB BKN098 19/15 Q1011
    LHBP 192011Z VRB03KT 9999 TSRA BKN050CB 19/16 Q1011 NOSIG
    LHBP 192030Z 26006KT 240V300 9999 -TSRA SCT042CB 18/16 Q1011 RETSRA NOSIG
  • LKCV: Caslav, Czech Republic
    LKCV 191813Z 26010KT 9999 2000SW -TSRA BKN029CB 18/13 Q1010 RMK YLO
    LKCV 191816Z 26013G23KT 6000 2000SW TSRA BKN023CB 17/13 Q1011 RMK YLO
    LKCV 191830Z 22019G34KT 1700 TSRA OVC020CB 12/09 Q1011 NOSIG RMK YLO YLO
    LKCV 191830Z 28004KT 1700 TSRAGR BKN020CB 12/10 Q1011 RMK YLO
    LKCV 191836Z 27005KT 9999 -TSRA BKN021CB 12/11 Q1011 RMK BLU
    LKCV 191900Z VRB02KT 9999 -TSRA SCT021CB SCT100 13/11 Q1010 NOSIG
    LKCV 191900Z VRB02KT 9999 -TSRA SCT021CB SCT100 13/11 Q1010 NOSIG RMK BLU BLU
  • LKNA: Namest, Czech Republic
    LKNA 192000Z 15007KT 9999 -TSRA SCT045CB SCT087 16/11 Q1011
    LKNA 192000Z 15007KT 9999 -TSRA SCT045CB SCT087 16/11 Q1011 RMK BLACK
    LKNA 192030Z 19008KT 170V230 7000 TSRA BKN045CB 14/11 Q1012 RMK BLACK
    LKNA 192030Z 19008KT 170V230 9999 TSRA BKN045CB 14/11 Q1012 RMK BLACK
  • LKPD: Pardubice, Czech Republic
    LKPD 191818Z 32009KT 280V040 9999 -TSRA SCT026CB SCT050 17/13 Q1010 RMK BLU
    LKPD 191830Z 33010KT 9999 -TSRA FEW030CB SCT037 16/11 Q1010 NOSIG RMK BLU BLU
    LKPD 191900Z 24016G31KT 8000 TSRA BKN023CB 14/12 Q1012 NOSIG
    LKPD 191900Z 24016G31KT 8000 TSRA BKN023CB 14/12 Q1012 NOSIG RMK WHT WHT
    LKPD 191904Z 24018G30KT 220V280 3000 TSRA BKN023CB 14/10 Q1012 RMK YLO
  • LOWS: Salzburg-Flughafen, Austria
    LOWS 191820Z 36006KT 9999 -TSRA FEW050 FEW060CB SCT070 BKN090 19/11 Q1010
    LOWS 191850Z 36005KT 9999 -TSRA FEW040 FEW060CB SCT070 BKN095 18/13 Q1010
  • LQTZ: Tuzla, Serbia and Montenegro
    LQTZ 191800Z 27011KT 6000 TSRA FEW035CB OVC040 17/17 Q1012
    LQTZ 191830Z VRB03KT 8000 TSRA FEW015 FEW035CB BKN040 17/17 Q1012
  • LYBE: Beograd / Surcin, Serbia and Montenegro
    LYBE 192130Z 20009KT 9999 -TSRA FEW030CB SCT040 19/16 Q1013
  • LYKV: Kraijevo, Serbia and Montenegro
    LYKV 192130Z 32004KT 280V030 6000 -TSRA FEW020 FEW030CB SCT033 18/17 Q1013
  • MGES: Esquipulas, Guatemala
    MGES 192100Z 27012KT 6000 TSRA SCT016 SCT025CB BKN090 22/21 QFE 907.5 CB/TS/LTNG S/SSW /SW/W
  • MGGT: Guatemala Aeropuertola Aurora, Guatemala
    MGGT 192016Z 14006KT 5000S -TSRA FEW018TCU SCT022CB SCT090 CB SE/SSE/SBR STN CB E/S/SSW/SW TCU WNW
  • VEGT: Gauhati, India
    VEGT 191800Z 19010KT 2000 TSRA SCT016 FEW025CB OVC080 27/27 Q1005 NOSIG
    VEGT 191830Z 19009KT 2000 TSRA SCT016 FEW025CB OVC080 27/27 Q1004 NOSIG
    VEGT 191900Z 20007KT 2000 TSRA SCT016 FEW025CB OVC080 27/26 Q1004 NOSIG
    VEGT 191930Z 00000KT 2000 TSRA SCT016 FEW025CB OVC080 26/26 Q1005 NOSIG
    VEGT 192000Z 00000KT 1800 R02/2000 TSRA SCT016 FEW025CB OVC080 26/26 Q1005 NOSIG
    VEGT 192030Z 10004KT 1800 R02/2000 TSRA SCT016 FEW025CB OVC080 26/25 Q1005 NOSIG
  • VOCL: Calicut, India
    VOCL 191800Z 00000KT 2000 TSRA SCT004 SCT012 FEW025CB BKN080 25/24 Q1006
    VOCL 191830Z 06002KT 2000 -TSRA SCT006 SCT012 FEW025CB BKN080 24/24 Q1005
    VOCL 191900Z 00000KT 2000 -TSRA SCT006 SCT012 FEW025CB BKN080 24/24 Q1005
    VOCL 191930Z 35003KT 2000 -TSRA SCT004 SCT012 FEW025CB BKN080 24/24 Q1005
    VOCL 191930Z 35003KT 2000 -TSRA SCT006 SCT012 FEW025CB BKN080 24/24 Q1005
    VOCL 192000Z 30002KT 2000 -TSRA SCT004 SCT012 FEW025CB BKN080 24/24 Q1004 NOSIG
    VOCL 192030Z 00000KT 2000 -TSRA SCT004 SCT012 FEW025CB BKN080 24/24 Q1004 NOSIG
    VOCL 192100Z 01003KT 2000 -TSRA SCT004 SCT012 FEW025CB BKN080 24/24 Q1004
  • VOKN: Kannur Intl, India
    VOKN 191800Z 08005KT 2500 -TSRA FEW003 SCT012 FEW025CB BKN080 26/25 Q1006 NOSIG
    VOKN 191830Z 06004KT 2000 -TSRA FEW003 SCT012 FEW025CB BKN080 26/25 Q1005 NOSIG
    VOKN 191900Z 06004KT 2000 -TSRA FEW003 SCT012 FEW025CB BKN080 26/25 Q1005 NOSIG
  • VTBS: Chon Buri, Thailand
    VTBS 191800Z 00000KT 9000 -TSRA FEW020CB 25/24 Q1005 NOSIG
  • VVCR: Cam Ranh Bay, Viet Nam
    VVCR 191800Z VRB01KT 7000 -TSRA FEW007 FEW015CB BKN040 26/25 Q1006
  • WMKA: S Abdul Halim, Malaysia
    WMKA 192000Z 35003KT 270V070 8000 -TSRA FEW010 FEW017CB SCT025 27/26 Q1005 RERA
    WMKA 192100Z VRB03KT 8000 -TSRA FEW010 FEW017CB SCT025 26/25 Q1005


0 stations reporting blizzard conditions

0 stations reporting near-blizzard conditions


2 stations reporting visibility of zero

  • KMWN: Mount Washington, NH, United States
    KMWN 191852Z 11001KT 0SM FG VV000 07/07 RMK DZE45
    KMWN 191952Z 29005KT 0SM FG VV000 08/08 RMK
    KMWN 192051Z 29005KT 0SM FG VV000 08/08 RMK
  • RJOA: Hiroshima Airport, Japan
    RJOA 192000Z AUTO VRB02KT 0000 R28/0900VP2000U FG OVC000 12/12 Q1014
    RJOA 192100Z AUTO 31005KT 0000 R28/0150V0250N FG OVC000 12/12 Q1015
    RJOA 192104Z AUTO 31005KT 0000 R28/0175V0400N FG OVC000 12/12 Q1015 RMK A2998
    RJOA 192109Z AUTO 29006KT 0000 R28/0225V0800U FG OVC000 12/12 Q1015 RMK A2998
    RJOA 192114Z AUTO 29008KT 0000 R28/0325VP2000U FG OVC000 12/12 Q1015 RMK A2998
11 stations reporting visibility 1/8 mile or less, but not zero

  • DAOR: Bechar, Algeria [50meters]
    DAOR 192000Z 36037G47KT 0050 DRSA SS VV/// 21/07 Q1008
    DAOR 192000Z 36037G47KT 0050 SS VV/// 21/07 Q1008
    DAOR 192100Z 01040G50KT 0050 SS VV/// 20/05 Q1010
  • ETHC: Celle, Germany [100meters]
    ETHC 192120Z AUTO 00000KT 0100 // ////// 12/11 Q1009 ///
  • ETHF: Fritzlar, Germany [100meters]
    ETHF 192120Z AUTO 29003KT 0100 // ////// 12/12 Q1010 ///
  • KLRO: Mt. Pleasant, SC, United States [<1/4mile]
    KLRO 191835Z AUTO VRB06G11KT M1/4SM TSRA OVC003 21/21 A2987 RMK AO2 LTG DSNT ALQDS
  • KMWN: Mount Washington, NH, United States [1/16mile]
    KMWN 191758Z VRB01KT 1/16SM -DZ FG VV000 07/07 RMK 60001 10083 20037
  • OITL: Ardabil, Iran [100meters]
    OITL 191753Z 07012KT 0100 R15/1100D FG VV002 08/08 Q1017
    OITL 191800Z 07012KT 0100 R15/1100D FG VV002 08/08 Q1017
    OITL 191953Z 07012KT 0100 R15/250N FG VV001 08/08 Q1017
    OITL 192000Z 07012KT 0100 R15/250N FG VV001 08/08 Q1017
  • PATC: Tin City Airways Facilities Sector, AK, United States [<1/4mile]
    PATC 191855Z AUTO 02025KT M1/4SM FZFG VV002 M02/M02 A2985
    PATC 191855Z AUTO 02025KT M1/4SM FZFG VV002 M02/M02 A2985 RMK AO2 PK WND 02027/1758 SLP112 T10211021
    PATC 191955Z AUTO 02025KT M1/4SM FZFG VV002 M02/M02 A2985
    PATC 191955Z AUTO 02025KT M1/4SM FZFG VV002 M02/M02 A2985 RMK AO2 PK WND 02027/1909 SLP115 T10211020
    PATC 192055Z AUTO 02024KT M1/4SM FZFG VV002 M02/M02 A2987
    PATC 192055Z AUTO 02024KT M1/4SM FZFG VV002 M02/M02 A2987 RMK AO2 PK WND 02028/2001 SLP118 T10201020 53004
  • RJOA: Hiroshima Airport, Japan [100meters]
    RJOA 192000Z AUTO VRB02KT 0000 R28/0900VP2000U FG OVC000 12/12 Q1014
    RJOA 192100Z AUTO 31005KT 0000 R28/0150V0250N FG OVC000 12/12 Q1015
    RJOA 192104Z AUTO 31005KT 0000 R28/0175V0400N FG OVC000 12/12 Q1015 RMK A2998
    RJOA 192109Z AUTO 29006KT 0000 R28/0225V0800U FG OVC000 12/12 Q1015 RMK A2998
    RJOA 192114Z AUTO 29008KT 0000 R28/0325VP2000U FG OVC000 12/12 Q1015 RMK A2998
    RJOA 192117Z AUTO 29009KT 0100 R28/0200VP2000U FG OVC000 12/12 Q1015 RMK A2999
    RJOA 192121Z AUTO 29009KT 0100 R28/0200VP2000D FG OVC000 12/12 Q1015 RMK A2998
    RJOA 192127Z AUTO 30008KT 0100 R28/0200VP2000U FG OVC000 12/12 Q1015 RMK A2998
  • UATE: Aktau, Kazakhstan [50meters]
    UATE 191930Z 23002MPS 0050 R29/0300N FG VV001 12/12 Q1018 NOSIG RMK QBB030 QFE762/1016
    UATE 192030Z 26002MPS 0050 R29/0325N FG VV001 12/12 Q1018 NOSIG RMK QBB040 QFE762/1016
    UATE 192100Z 24002MPS 0050 R29/0325N FG VV001 12/12 Q1017 NOSIG RMK QBB030 QFE761/1015
    UATE 192130Z 22001MPS 0050 R29/0300N FG VV001 12/11 Q1017 NOSIG RMK QBB030 QFE761/1015
  • YSRI: Richmond Aus-Afb, Australia [200meters]
    YSRI 191800Z AUTO 00000KT 0200 // BKN001 03/03 Q1021 RF00.0/000.0
    YSRI 191800Z AUTO 00000KT 0200 // BKN001 03/03 Q1021 RF00/0/000/0
  • ZYCC: Changchun, China [100meters]
    ZYCC 192100Z VRB01MPS 0100 R06/0250N FG VV002 04/03 Q1018
0 stations reporting visibility 75 miles or greater

1 station reporting visibility 50-74 miles

  • KEDW: Edwards AFB, CA, United States [50miles]
    KEDW 191755Z 27019G24KT 50SM CLR 28/05 A2992 RMK AO2A SLP111 T02830045 10284 20143 57003
    KEDW 191802Z 26020G25KT 50SM CLR 29/05 A2991 RMK AO2A
    KEDW 191855Z 26017G25KT 50SM CLR 30/03 A2990 RMK AO2A PK WND 27029/02 SLP104 T03000031
    KEDW 191955Z 28021KT 50SM CLR 31/01 A2988 RMK AO2A PK WND 27027/39 SLP096 T03060010


0 stations reporting aurora

0 stations reporting solar/lunar eclipse


0 stations reporting inside a hurricane eye

1 station reporting aircraft mishap

  • KOLV: Olive Branch, Olive Branch Airport, MS, United States
    KOLV 192036Z 06004KT 10SM SCT055 31/16 A2995 RMK ACFT MSHP
12 stations reporting bird hazard on the runway

  • SPCL: Pucallpa, Peru
    SPCL 191800Z 13005KT 9999 SCT020 33/23 Q1014 RMK BIRD HAZARD RWY 02/20 PP000
    SPCL 191900Z 15006KT 9999 SCT025 32/23 Q1012 RMK BIRD HAZARD RWY 02/20 PP000
    SPCL 192000Z 09008KT 9999 SCT025 33/23 Q1011 RMK BIRD HAZARD RWY 02/20 PP000
    SPCL 192100Z 17006KT 9999 SCT025 32/22 Q1010 RMK BIRD HAZARD RWY 02/20 PP000
  • SPHI: Chiclayo, Peru
    SPHI 191800Z 19017KT CAVOK 23/16 Q1012 RMK BIRD HAZARD RWY 19/01 PP000
    SPHI 191900Z 18019KT CAVOK 23/16 Q1011 RMK BIRD HAZARD RWY 19/01 PP000
    SPHI 192000Z 19020KT CAVOK 23/16 Q1010 RMK BIRD HAZARD RWY 19/01 PP000
    SPHI 192100Z 18019KT CAVOK 22/16 Q1010 RMK BIRD HAZARD RWY 19/01 PP000
  • SPHO: Ayacucho, Peru
    SPHO 191800Z 28005KT 230V320 9999 FEW030 FEW040TCU 23/08 Q1028 RMK BIRD HAZARD RWY 02/20 PP000
    SPHO 191900Z VRB04KT 9999 FEW035 FEW045TCU 24/06 Q1027 RMK BIRD HAZARD RWY 02/20 PP000
    SPHO 192000Z VRB03KT 9999 FEW030 25/05 Q1025 RMK BIRD HAZARD RWY 02/20 PP000
    SPHO 192100Z VRB03KT 9999 FEW035 FEW045TCU 24/04 Q1025 RMK SH QUAD S/SO BIRD HAZARD RWY 02/20 PP000
  • SPHY: Andahuayla, Peru
    SPHY 191800Z 07003KT 9999 SCT012 17/09 Q1035 RMK BIRD HAZARD RWY03/21 PP000
    SPHY 191900Z 05007KT 9999 SCT012 17/10 Q1035 RMK BIRD HAZARD RWY03/21 PP000
  • SPJC: Lima/J Chavez, Peru
    SPJC 191800Z 27008KT 7000 OVC007 18/15 Q1013 NOSIG RMK BIRD HAZARD RWY 16 PP000
    SPJC 191900Z 29007KT 7000 OVC007 18/15 Q1012 NOSIG RMK BIRD HAZARD RWY 16 PP000
    SPJC 192000Z 29007KT 7000 OVC007 18/15 Q1012 NOSIG RMK BIRD HAZARD RWY 16 PP000
    SPJC 192100Z VRB03KT 7000 OVC008 18/15 Q1011 NOSIG RMK BIRD HAZARD RWY 16 PP000
  • SPME: Tumbes, Peru
    SPME 191800Z 33009KT 9999 SCT020 SCT070 30/23 Q1009 RMK BIRD HAZARD RWY 32/14 PP000
    SPME 191900Z 01008KT 9999 SCT020 SCT070 29/23 Q1008 RMK BIRD HAZARD RWY 32/14 PP000
    SPME 192000Z 35008KT 9999 SCT014 SCT020 27/23 Q1008 RMK BIRD HAZARD RWY 32/14 PP000
    SPME 192100Z 32008KT 9999 BKN014 27/23 Q1007 RMK BIRD HAZARD RWY 32/14 PP000
  • SPMS: Yurimaguas, Peru
    SPMS 191800Z 23006KT 9999 FEW010 OVC020 27/25 Q1013 RMK BIRD HAZARD RWY 09/27 PP000
    SPMS 191900Z 30006KT 8000 -RA FEW010 BKN040 27/26 Q1012 RMK BIRD HAZARD RWY 09/27 PPTRZ
  • SPSO: Pisco, Peru
    SPSO 191800Z 29009KT 8000 BKN007 19/16 Q1012 RMK BIRD HAZARD RWY 22/04 PP000
    SPSO 191900Z 29009KT 9999 FEW007 19/17 Q1012 RMK BIRD HAZARD RWY 22/04 PP000
    SPSO 192000Z 33009KT 300V360 9999 FEW007 19/16 Q1012 RMK BIRD HAZARD RWY 22/04 PP000
    SPSO 192100Z 34009KT 9999 FEW007 19/16 Q1011 RMK BIRD HAZARD RWY 22/04 PP000
  • SPTU: Puerto Maldonado, Peru
    SPTU 191800Z 12005KT 050V160 9999 BKN010 OVC015 20/17 Q1017 RMK BIRD HAZARD RWY 01/19 PP000
    SPTU 191900Z 12004KT 060V170 9999 BKN011 OVC018 20/17 Q1016 RMK BIRD HAZARD RWY 01/19 PP000
    SPTU 192000Z 12003KT 060V160 9999 BKN015 OVC018 20/17 Q1015 RMK BIRD HAZARD RWY 01/19 PP000
    SPTU 192100Z 12004KT 050V170 9999 SCT015 BKN018 20/17 Q1015 RMK BIRD HAZARD RWY 01/19 PP000
  • SPUR: Piura, Peru
    SPUR 191800Z 19006KT CAVOK 27/18 Q1011 RMK BIRD HAZARD RWY 19/01 PP000
    SPUR 191900Z 19006KT CAVOK 28/18 Q1010 RMK BIRD HAZARD RWY 19/01 PP000
    SPUR 192000Z 21011KT CAVOK 28/18 Q1009 RMK BIRD HAZARD RWY 19/01 PP000
    SPUR 192100Z 19014KT CAVOK 28/18 Q1008 RMK BIRD HAZARD RWY 19/01 PP000
  • SPYL: Talara, Peru
    SPYL 191800Z /////KT CAVOK 27/18 Q1010 RMK BIRD HAZARD RWY 17/35 PP000
    SPYL 191900Z /////KT CAVOK 26/18 Q1009 RMK BIRD HAZARD RWY 17/35 PP000
    SPYL 192000Z /////KT CAVOK 25/18 Q1008 RMK BIRD HAZARD RWY 17/35 PP000
    SPYL 192100Z /////KT CAVOK 24/18 Q1008 RMK BIRD HAZARD RWY 17/35 PP000
  • SPZO: Cuzco, Peru
    SPZO 191800Z 32008KT 290V010 9999 SCT060 21/02 Q1032 NOSIG RMK BIRD HAZARD RWY 10/28 PP000
    SPZO 191830Z VRB05KT 9999 SCT060 21/M01 Q1031 NOSIG RMK BIRD HAZARD RWY 10/28
    SPZO 191900Z 31010KT 250V350 9999 SCT060 22/01 Q1031 NOSIG RMK BIRD HAZARD RWY 10/28 PP000
    SPZO 191930Z 32010KT 300V360 9999 SCT060 23/02 Q1030 NOSIG RMK BIRD HAZARD RWY 10/28
    SPZO 192000Z 33008KT 290V010 9999 FEW050 SCT100 22/02 Q1030 NOSIG RMK BIRD HAZARD RWY 10/28 PP000
    SPZO 192030Z 29009KT 9999 FEW050 SCT100 21/03 Q1030 NOSIG RMK BIRD HAZARD RWY 10/28
    SPZO 192100Z 28011KT 240V310 9999 FEW050 SCT100 21/02 Q1030 NOSIG RMK BIRD HAZARD RWY 10/28 PP000
    SPZO 192130Z 28010KT 240V300 9999 SCT050 20/02 Q1030 NOSIG RMK BIRD HAZARD RWY 10/28
0 stations reporting volcanic ash

1 station reporting ice crystals/diamond dust

  • NZSP: Amundsen-Scott Stn, Antarctica
    NZSP 191750Z 05003KT 9999 IC SCT020 M64/ A2811 RMK CLN AIR 03006KT ALL WNDS GRID
0 stations reporting blowing spray

6 stations reporting dust or duststorm

  • DAUL: Laghouat, Algeria
    DAUL 191900Z 21014KT 4500 DU FEW030 SCT100 BKN200 31/04 Q1005
    DAUL 192000Z 21010KT 4500 DU FEW030 29/05 Q1005
  • DAUT: Timimoun, Algeria
    DAUT 192000Z 24013KT 3000 DU NSC 33/// Q1006
    DAUT 192100Z 24015KT 4000 DU NSC 32/// Q1007
  • KABQ: Albuquerque, Albuquerque Intl Arpt, NM, United States
    KABQ 191852Z 26014G28KT 10SM FEW110 27/M05 A3005 RMK AO2 PK WND 28028/1850 SLP084 BLDU ALQDS T02721050
    KABQ 191923Z 23013G22KT 10SM FEW110 27/M05 A3003 RMK AO2 WSHFT 1908 BLDU ALQDS T02721050
  • KLBB: Lubbock, Lubbock Intl Arpt, TX, United States
    KLBB 191953Z 21015G30KT 10SM FEW130 36/04 A2985 RMK AO2 PK WND 24030/1945 SLP048 PTCHY BLDU ALQDS T03610044 $
  • LMML: Luqa, Malta
    LMML 191745Z 08015G25KT 9000 NSC 22/17 Q1009 NOSIG RMK DU IN SUSPENSION
    LMML 191815Z 08015KT 9000 NSC 21/17 Q1009 NOSIG RMK DU IN SUSPENSION
    LMML 191845Z 08015KT 9000 NSC 21/17 Q1009 NOSIG RMK DU IN SUSPENSION
    LMML 191915Z 09014KT 9000 NSC 21/17 Q1009 NOSIG RMK DU IN SUSPENSION
    LMML 191945Z 09015KT 9000 NSC 20/17 Q1009 NOSIG RMK DU IN SUSPENSION
    LMML 192015Z 09012KT 9000 NSC 20/17 Q1009 NOSIG RMK DU IN SUSPENSION
    LMML 192045Z 09012KT 070V130 CAVOK 20/17 Q1009 NOSIG RMK DU IN SUSPENSION
    LMML 192115Z 09011KT CAVOK 20/17 Q1009 NOSIG RMK DU IN SUSPENSION
  • MMMX: Mexico City / Licenci, Mexico
    MMMX 191950Z 08015KT 8SM SCT020 29/07 A3027 NOSIG RMK 8/200 HZY DSNT TCU N BLDU
    MMMX 192030Z 32010KT 8SM SCT020TCU 31/05 A3025 NOSIG RMK 8/200 HZY BLDU
    MMMX 192050Z 30012KT 8SM SCT020TCU 31/05 A3023 NOSIG RMK SLP030 57024 915 8/200 HZY BLDU
5 stations reporting sand or sandstorm

  • DAAP: Illizi, Algeria
    DAAP 191825Z 23022G39KT 1000 TSRA BLSA FEW046CB SCT100 34/13 Q1012
  • DAOR: Bechar, Algeria
    DAOR 192000Z 36037G47KT 0050 DRSA SS VV/// 21/07 Q1008
    DAOR 192000Z 36037G47KT 0050 SS VV/// 21/07 Q1008
    DAOR 192100Z 01040G50KT 0050 SS VV/// 20/05 Q1010
  • DTTJ: Djerba Mellita, Tunisia
    DTTJ 191800Z 05007KT 020V080 4000 SA NSC 23/19 Q1006 NOSIG
    DTTJ 191830Z 05006KT 4000 SA NSC 22/19 Q1006 NOSIG
  • DTTZ: Tozeur, Tunisia
    DTTZ 191800Z 09022KT 4000 SA NSC 31/17 Q1003
    DTTZ 191900Z 09024KT 4000 SA NSC 29/18 Q1004
    DTTZ 192000Z 09025KT 4000 SA NSC 27/17 Q1004
    DTTZ 192100Z 09024KT 4000 SA NSC 26/18 Q1004
  • HEGN: Hurguada, Egypt
    HEGN 192000Z 32020KT 4000 SA NSC 35/04 Q1008 NOSIG
1 station reporting well-developed dust/sand whirls

  • KIWA: Mesa, Williams Gateway Airport, AZ, United States
    KIWA 191954Z 24017G23KT 10SM VCPO CLR 34/M05 A2991
    KIWA 192047Z 23018G24KT 10SM VCPO CLR 34/M05 A2990
22 stations reporting smoke

  • CYCQ: Chetwynd Airport, Canada
    CYCQ 191800Z 17005KT 120V210 35SM FEW040 SCT100 SCT120 OVC200 12/03 A3002 RMK CU2AC1AC1CI5 AC TR FU DIST MT W SLP187
    CYCQ 191900Z 33005KT 280V030 15SM SCT045 BKN200 14/M01 A3001 RMK CU4CI2 FU DIST MT W SLP184 DENSITY ALT 2300FT
    CYCQ 192000Z 31005KT 240V350 15SM BKN045 OVC200 14/M01 A3001 RMK CU7CI1 HVY FU DIST MT W SLP183 DENSITY ALT 2300FT
    CYCQ 192100Z VRB04KT 15SM FEW045 SCT090 15/M03 A3000 RMK CU1AC4 HVY FU DIST MT W SLP179 DENSITY ALT 2400FT
  • CYEG: Edmonton International, Alta., Canada
    CYEG 191800Z 31013G20KT 4SM -SHRA FU BKN022 OVC032 06/04 A2986 RMK SC6SC2 CVCTV CLD EMBD SLP136
    CYEG 191810Z 31017G24KT 3SM -RA FU BKN019 OVC032 06/04 A2986 RMK SC6SC2 SUN DIMLY VISBL SLP136
    CYEG 191824Z 31014G19KT 4SM -RA FU BKN018 OVC032 06/04 A2986 RMK SC7SC1 SUN DIMLY VISBL SLP137
    CYEG 191900Z 30013G21KT 5SM -RA FU BKN017 OVC021 06/04 A2987 RMK SC7SC1 SUN DIMLY VISBL SLP138
    CYEG 192000Z 31011G21KT 5SM -RA BR FU OVC018 06/04 A2988 RMK SC8 SLP143
    CYEG 192044Z 31013G19KT 12SM -RA BKN018 OVC035 06/04 A2989 RMK SC5SC3 BR FU SLP146
  • CYXJ: Fort St John, B. C., Canada
    CYXJ 191800Z 32014G20KT 15SM -SHRA BKN048 OVC057 09/01 A3001 RMK SC6SC2 CVCTV CLD EMBD FU SLP187
    CYXJ 191815Z 32016KT 15SM OVC043 09/01 A3001 RMK SC8 FU SLP187
    CYXJ 191848Z 33015G23KT 15SM -SHRA BKN047 OVC060 09/00 A3002 RMK SC5SC3 CVCTV CLD EMBD FU SLP188
    CYXJ 191900Z 32017G28KT 15SM -SHRA BKN047 OVC060 10/00 A3001 RMK SC5SC3 CVCTV CLD EMBD FU SLP187
    CYXJ 191931Z 35014KT 15SM BKN046 OVC060 10/M01 A3002 RMK FU1SC4SC3 FU SLP190
    CYXJ 192000Z 34011G18KT 15SM BKN046 OVC060 10/00 A3002 RMK FU1SC4SC3 FU SLP191
    CYXJ 192100Z 35009KT 15SM BKN063 11/M00 A3002 RMK FU1SC6 FU SLP190
  • KQD3: UNKNOWN,
    KQD3 191755Z 00000KT 8000 FU CLR 31/27 A2974 RMK AO2A SLP055 WND DATA ESTMD T03110266 10351 20015
    KQD3 191955Z VRB03KT 8000 FU CLR 31/27 A2976 RMK AO2A SLP062 WND DATA ESTMD T03080270
  • KSLC: Salt Lake City, Salt Lake City Intl Arpt, UT, United States
    KSLC 192116Z 01008G20KT 10SM FEW012 FEW100 FEW240 22/M02 A2992 RMK AO2 FU FEW012 FU N T02171022
  • MGCB: Coban, Guatemala
    MGCB 191800Z 02006KT 9000 BKN018 30/19 QFE 870.4 FU
    MGCB 191900Z 32008KT 8000 BKN018 28/20 QFE 870.0 FU
    MGCB 192000Z 05004KT 8000 SCT018 29/20 QFE869.3 FU
    MGCB 192100Z 12004KT 8000 BKN018 FEW024CB 29/20 QFE 869.0 FU CB SE
  • MGPB: Puerto Barrios, Guatemala
    MGPB 191800Z 36008KT 3000 FU FEW020 BKN200 34/26 Q1009 A2980
    MGPB 191900Z 36008KT 3000 FU FEW020 BKN200 35/26 Q1009 A2980
    MGPB 192000Z 36008KT 3000 FU FEW020 BKN090 36/26 Q1007 A2974
    MGPB 192100Z 36008KT 3000 FU FEW020 SCT090 35/25 Q1007 A2974
  • MHCA: Catacamas, Honduras
    MHCA 191800Z 09008KT 5000 FU FEW030 36/20 Q1013
  • MHLC: La Ceiba Airport, Honduras
    MHLC 191800Z 04006KT 9999 4000W FU FEW028 SCT080 32/26 Q1010 A2983 NOSIG
    MHLC 191900Z 33006KT 9999 4000W FU FEW028 SCT080 33/27 Q1009 A2980 NOSIG
    MHLC 192000Z 35005KT 9999 4000W FU FEW026 SCT080 32/27 Q1009 A2980 NOSIG
  • MHLM: La Mesa San Pedro Sula, Honduras
    MHLM 191800Z 08008KT 3000 FU SCT026 36/25 Q1008 A2977 NOSIG
    MHLM 191900Z 08013KT 3000 FU SCT028 36/26 Q1008 A2977 NOSIG
    MHLM 192000Z 08014KT 3000 FU SCT028 35/27 Q1007 A2974 NOSIG
    MHLM 192100Z 06015KT 3000 FU SCT028 35/26 Q1006 A2971 NOSIG
  • MHPR: Palmerola Airport, Comayagua, Hondorus
    MHPR 192000Z 35010KT 5000 FU FEW050 37/16 Q1011 A2987 NOSIG
    MHPR 192100Z 21004KT 4000 FU SCT050TCU FEW052CB 37/15 Q1011 A2985 NOSIG
  • MHRO: Roatan, Honduras
    MHRO 191800Z 11010KT 3000 FU OVC016 31/26 Q1010 A2983 NOSIG
    MHRO 191900Z 10010KT 5000 FU FEW018 BKN070 31/26 Q1010 A2983 NOSIG
    MHRO 192000Z 09011KT 5000 FU FEW018 BKN070 32/26 Q1009 A2980 NOSIG
  • MHTE: Tela, Honduras
    MHTE 191800Z 36012KT 7000 5000SW FU FEW028TCU BKN080 33/28 Q1008 A2977
    MHTE 191900Z 36012KT 7000 5000SW FU FEW028 SCT080 34/28 Q1007 A2974
    MHTE 192000Z 36010KT 5000 FU SCT026 BKN080 33/28 Q1007 A2974
    MHTE 192100Z 36007KT 5000 FU SCT026 BKN080 33/28 Q1006 A2971
  • MHTR: Trujillo, Honduras
    MHTR 191800Z 06003KT 5000 FU FEW024 34/26
    MHTR 191900Z 04003KT 5000 FU FEW025 35/25
  • MMGA: UNKNOWN,
    MMGA 191845Z E20005KT 10SM SKC ///// A//// RMK VSBY LWR E FU
    MMGA 191940Z E27008KT 10SM SKC ///// A//// RMK VSBY LWR E FU
  • MMVA: Villahermosa, Mexico
    MMVA 191745Z 02004KT 4SM SCT018 SCT070 BKN210 34/24 A2988 RMK SLP117 57013 930 8/538 FU AND HZY
  • MMVR: Veracruz / Las Bajadas / General Heriberto Jara, Mexico
    MMVR 191946Z 07008KT 4SM SKC 36/24 A2979 RMK HZY FU ARND ISOL CU
    MMVR 192043Z 04009KT 5SM SKC 36/23 A2977 RMK SLP075 57020 912 HZY FU ARND ISOL CU
  • MNRS: Rivas, Nicaragua
    MNRS 191800Z 00000KT 9000 FEW015CB 34/26 Q1009 CB/NE/E/SE/S FU
    MNRS 191900Z 02004KT 9000 FEW015CB 35/24 Q1008 CB/E/SE/S FU
  • OPFA: Faisalabad, Pakistan
    OPFA 191955Z 00000KT 4000 FU NSC 30/20 Q1000 NOSIG
    OPFA 192055Z 00000KT 4000 FU NSC 29/20 Q1000 NOSIG
  • ORNI: Al-ashraf, Iraq
    ORNI 191800Z 00000KT 5000 FU NSC 32/09 Q1006
    ORNI 192000Z 02005KT 5000 FU NSC 30/10 Q1006
    ORNI 192100Z 00000T 4000 FU NSC 30/10 Q1006
  • TLPL: Hewanorra Intl Arpt, Saint Lucia
    TLPL 191800Z 10016KT 9999 1000SE FU FEW028 32/25 Q1014 NOSIG
    TLPL 191900Z 10015KT 9999 1000SE FU FEW028 32/26 Q1014 NOSIG
    TLPL 192000Z 09015KT 9999 2000S FU FEW028 31/25 Q1013 NOSIG
  • VAAH: Ahmadabad, India
    VAAH 191800Z 27007KT 5000 FU NSC 36/12 Q1001 NOSIG
    VAAH 191830Z 27006KT 5000 FU NSC 36/12 Q1001 NOSIG
    VAAH 191900Z 27006KT 5000 FU NSC 35/12 Q1001 NOSIG
    VAAH 191930Z 28006KT 5000 FU NSC 35/13 Q1001 NOSIG
    VAAH 192000Z 27006KT 5000 FU NSC 35/13 Q1000 NOSIG
    VAAH 192030Z 28006KT 5000 FU NSC 34/13 Q1000 NOSIG
    VAAH 192100Z 29004KT 5000 FU NSC 33/14 Q1000 NOSIG
    VAAH 192130Z 29005KT 5000 FU NSC 33/15 Q1001 NOSIG


Stations falling into 5 or more extreme categories

Stations falling into 4 extreme categories

Stations falling into 3 extreme categories

  • DAAP: Illizi, Algeria
        Temperature, Thunderstorm, Sand/Sandstorm
  • DAOR: Bechar, Algeria
        Wind, Visibility, Sand/Sandstorm
  • KNBC: Beaufort, Marine Corps Air Stn, SC, United States
        Wind, Hourly Precip Total, Thunderstorm
  • KOKZ: Sandersville Kaolin, GA, United States
        Precipitation Type/Intensity, Hourly Precip Total, Thunderstorm
  • KRSL: Russell, Russell Municipal Airport, KS, United States
        Wind, Hourly Precip Total, Thunderstorm
Stations falling into 2 extreme categories

  • K36K: Lakin, KS, United States
        Wind, Thunderstorm
  • KARW: Beaufort, SC, United States
        Hourly Precip Total, Thunderstorm
  • KFPR: Fort Pierce, St. Lucie County Intl Arpt, FL, United States
        Hourly Precip Total, Thunderstorm
  • KIEN: Pine Ridge, Pine Ridge Airport, SD, United States
        Wind, Thunderstorm
  • KLRO: Mt. Pleasant, SC, United States
        Thunderstorm, Visibility
  • KMHP: Metter, GA, United States
        Precipitation Type/Intensity, Hourly Precip Total
  • KPEA: Pella, Pella Municipal Airport, IA, United States
        Wind, Precipitation Type/Intensity
  • KQD3: UNKNOWN,
        Dewpoint, Smoke
  • KRVJ: Reidsville, GA, United States
        Hourly Precip Total, Thunderstorm
  • KSAV: Savannah, GA, United States
        Hourly Precip Total, Thunderstorm
  • KSEF: Sebring, FL, United States
        Wind, Thunderstorm
  • KSVN: Hunter U. S. Army Airfield, GA, United States
        Precipitation Type/Intensity, Hourly Precip Total
  • KTBR: Statesboro, GA, United States
        Precipitation Type/Intensity, Thunderstorm
  • KTOR: Torrington, WY, United States
        Wind, Thunderstorm
  • KVDI: Vidalia, Vidalia Municipal Airport, GA, United States
        Hourly Precip Total, Thunderstorm
  • KVRB: Vero Beach, FL, United States
        Hourly Precip Total, Thunderstorm
  • KX26: Valkaria AFS Sebastian, FL, United States
        Hourly Precip Total, Thunderstorm
  • MGPB: Puerto Barrios, Guatemala
        Dewpoint, Smoke
  • MHLC: La Ceiba Airport, Honduras
        Dewpoint, Smoke
  • MHLM: La Mesa San Pedro Sula, Honduras
        Dewpoint, Smoke
  • MHRO: Roatan, Honduras
        Dewpoint, Smoke
  • MHTE: Tela, Honduras
        Dewpoint, Smoke
  • MHTR: Trujillo, Honduras
        Dewpoint, Smoke
  • MNRS: Rivas, Nicaragua
        Dewpoint, Smoke
  • NZSP: Amundsen-Scott Stn, Antarctica
        Temperature, Ice Crystals/Diamond Dust
  • SPHY: Andahuayla, Peru
        Pressure, Bird Hazard
  • SPMS: Yurimaguas, Peru
        Dewpoint, Bird Hazard
  • TLPL: Hewanorra Intl Arpt, Saint Lucia
        Dewpoint, Smoke
  • VEGT: Gauhati, India
        Dewpoint, Thunderstorm
  • WIDD: Hang Nadim, Indonesia
        Dewpoint, Precipitation Type/Intensity
  • WMKA: S Abdul Halim, Malaysia
        Dewpoint, Thunderstorm


90 unidentified stations (out of a total of 165 documented unknown stations)

  • ENUN (OLD)
  • EQYE (OLD)
  • EQYF (OLD)
  • EQYT (OLD)
  • EQYV (OLD)
  • HESX (NEW)
  • HKGO (OLD)
  • HTIB (OLD)
  • K0D8 (NEW)
  • K0W3 (NEW)
  • K10U (NEW)
  • K1D8 (NEW)
  • K1K8 (NEW)
  • K2M8 (NEW)
  • K2R2 (NEW)
  • K3K7 (NEW)
  • K3W7 (NEW)
  • K42A (NEW)
  • K49B (NEW)
  • K4B8 (NEW)
  • K60R (NEW)
  • K8V7 (NEW)
  • K9Y1 (NEW)
  • KACZ (NEW)
  • KANR (NEW)
  • KBFA (NEW)
  • KC08 (NEW)
  • KCPP (NEW)
  • KCSB (NEW)
  • KD09 (NEW)
  • KDRP (NEW)
  • KE57 (NEW)
  • KE77 (NEW)
  • KETO (NEW)
  • KFOM (NEW)
  • KGDK (NEW)
  • KHVC (NEW)
  • KI40 (NEW)
  • KI95 (NEW)
  • KK83 (NEW)
  • KMCZ (NEW)
  • KMKQ (NEW)
  • KN79 (NEW)
  • KOYE (NEW)
  • KQA8 (OLD)
  • KQAL (OLD)
  • KQB3 (OLD)
  • KQD3 (OLD)
  • KQEK (OLD)
  • KQEO (OLD)
  • KQFL (OLD)
  • KQGE (OLD)
  • KQHB (OLD)
  • KQHC (OLD)
  • KQRD (OLD)
  • KQRR (NEW)
  • KQX2 (OLD)
  • KQXH (OLD)
  • KS12 (NEW)
  • KSBX (NEW)
  • KTQV (OLD)
  • KU64 (NEW)
  • KVGN (NEW)
  • LETU (OLD)
  • LIRY (NEW)
  • LRBV (NEW)
  • LTFO (OLD)
  • MGMT (OLD)
  • MGTU (OLD)
  • MMGA (NEW)
  • NZQN (NEW)
  • OEMN (NEW)
  • OERS (NEW)
  • OKKK (NEW)
  • PACX (NEW)
  • PANU (NEW)
  • PAPE (NEW)
  • PFKO (NEW)
  • PFTO (NEW)
  • PFZK (NEW)
  • UBBZ (NEW)
  • VAJM (NEW)
  • VDSA (NEW)
  • VEHX (NEW)
  • VEJT (NEW)
  • VIJR (NEW)
  • VISP (NEW)
  • VOGA (NEW)
  • WILL (NEW)
  • YBSU (NEW)